THY198 LTFM-RJTT
Flight info
| Callsign | THY198 |
|---|---|
| Flight time | N/A |
| Altitude | 33000 |
| Route | VICEN UT380 ASMAP UL333 LATGA UT363 GURBU UA4 ERZ UB374 INDUR DCT PEMAN N161 EDATA M11 LUSAL DCT BAK DCT NAMAS N35 RODAR A909 TUNEK B143 KRS A480 OTBOR/K0893F330 N147 GENDI Z621 ARBOL M610 TOMGO/K0885F350 M610 RULAD/K0885S1070 A343 POSOT B215 FKG W188 LIKMI W270 DKO W69 GUVBA/K0882S1130 W69 HUR B339 LADIX W34 VAPGU W100 ORAVA W201 UNSEK A326 DONVO G597 AGAVO/N0476F370 Y644 EGOBA Y697 LANAT Y71 XAC |
| Aircraft | B77W/H-SDE1E2E3FGHIJ2J3J4J5M1RWXY/LB1D1 |
Departure
| Time | 2026-05-07 23:42 |
|---|---|
| Airport | İstanbul Airport (LTFM) |
Arrival
| Time | N/A |
|---|---|
| Airport | Tokyo Haneda International Airport (RJTT) |
| Time | Latitude | Longitude | Altitude | Speed | Heading |
|---|---|---|---|---|---|
| 2026-05-07 21:54 | 41.26711 | 28.74714 | 318 ft | 0 kts | 88° |
| 2026-05-07 23:12 | 41.26709 | 28.74690 | 318 ft | 3 kts | 81° |
| 2026-05-07 23:12 | 41.26705 | 28.74665 | 318 ft | 3 kts | 68° |
| 2026-05-07 23:13 | 41.26697 | 28.74642 | 314 ft | 3 kts | 53° |
| 2026-05-07 23:13 | 41.26685 | 28.74625 | 316 ft | 3 kts | 33° |
| 2026-05-07 23:13 | 41.26671 | 28.74615 | 316 ft | 3 kts | 8° |
| 2026-05-07 23:13 | 41.26664 | 28.74613 | 316 ft | 3 kts | 360° |
| 2026-05-07 23:14 | 41.26684 | 28.74613 | 315 ft | 3 kts | 360° |
| 2026-05-07 23:14 | 41.26705 | 28.74613 | 317 ft | 3 kts | 359° |
| 2026-05-07 23:14 | 41.26718 | 28.74613 | 317 ft | 0 kts | 359° |
| 2026-05-07 23:19 | 41.26729 | 28.74613 | 318 ft | 4 kts | 359° |
| 2026-05-07 23:19 | 41.26775 | 28.74610 | 318 ft | 9 kts | 357° |
| 2026-05-07 23:19 | 41.26835 | 28.74607 | 318 ft | 9 kts | 359° |
| 2026-05-07 23:20 | 41.26896 | 28.74606 | 318 ft | 9 kts | 359° |
| 2026-05-07 23:20 | 41.26956 | 28.74604 | 317 ft | 9 kts | 359° |
| 2026-05-07 23:20 | 41.27016 | 28.74603 | 318 ft | 7 kts | 359° |
| 2026-05-07 23:20 | 41.27055 | 28.74579 | 317 ft | 6 kts | 298° |
| 2026-05-07 23:21 | 41.27056 | 28.74518 | 317 ft | 7 kts | 270° |
| 2026-05-07 23:21 | 41.27056 | 28.74440 | 317 ft | 11 kts | 269° |
| 2026-05-07 23:21 | 41.27055 | 28.74320 | 315 ft | 14 kts | 269° |
| 2026-05-07 23:21 | 41.27053 | 28.74192 | 315 ft | 14 kts | 269° |
| 2026-05-07 23:22 | 41.27051 | 28.74066 | 315 ft | 14 kts | 269° |
| 2026-05-07 23:22 | 41.27050 | 28.73939 | 315 ft | 14 kts | 269° |
| 2026-05-07 23:22 | 41.27048 | 28.73811 | 315 ft | 14 kts | 269° |
| 2026-05-07 23:22 | 41.27047 | 28.73683 | 318 ft | 14 kts | 269° |
| 2026-05-07 23:23 | 41.27045 | 28.73555 | 318 ft | 14 kts | 269° |
| 2026-05-07 23:23 | 41.27044 | 28.73428 | 315 ft | 14 kts | 269° |
| 2026-05-07 23:23 | 41.27042 | 28.73303 | 315 ft | 13 kts | 269° |
| 2026-05-07 23:23 | 41.27041 | 28.73185 | 314 ft | 10 kts | 269° |
| 2026-05-07 23:24 | 41.27040 | 28.73130 | 312 ft | 4 kts | 264° |
| 2026-05-07 23:24 | 41.27017 | 28.73104 | 315 ft | 5 kts | 199° |
| 2026-05-07 23:24 | 41.26978 | 28.73103 | 316 ft | 8 kts | 180° |
| 2026-05-07 23:24 | 41.26898 | 28.73104 | 317 ft | 13 kts | 179° |
| 2026-05-07 23:25 | 41.26809 | 28.73106 | 317 ft | 13 kts | 179° |
| 2026-05-07 23:25 | 41.26720 | 28.73107 | 316 ft | 13 kts | 179° |
| 2026-05-07 23:25 | 41.26631 | 28.73109 | 318 ft | 13 kts | 179° |
| 2026-05-07 23:25 | 41.26542 | 28.73111 | 317 ft | 13 kts | 179° |
| 2026-05-07 23:26 | 41.26453 | 28.73112 | 317 ft | 13 kts | 179° |
| 2026-05-07 23:26 | 41.26364 | 28.73114 | 317 ft | 13 kts | 179° |
| 2026-05-07 23:26 | 41.26275 | 28.73116 | 318 ft | 13 kts | 179° |
| 2026-05-07 23:26 | 41.26189 | 28.73117 | 318 ft | 12 kts | 179° |
| 2026-05-07 23:27 | 41.26017 | 28.73121 | 317 ft | 12 kts | 179° |
| 2026-05-07 23:27 | 41.25930 | 28.73122 | 317 ft | 12 kts | 179° |
| 2026-05-07 23:27 | 41.25844 | 28.73124 | 318 ft | 13 kts | 179° |
| 2026-05-07 23:28 | 41.25749 | 28.73126 | 317 ft | 14 kts | 179° |
| 2026-05-07 23:28 | 41.25652 | 28.73128 | 316 ft | 14 kts | 179° |
| 2026-05-07 23:28 | 41.25556 | 28.73130 | 318 ft | 14 kts | 179° |
| 2026-05-07 23:28 | 41.25467 | 28.73131 | 317 ft | 12 kts | 179° |
| 2026-05-07 23:29 | 41.25392 | 28.73132 | 317 ft | 8 kts | 179° |
| 2026-05-07 23:29 | 41.25350 | 28.73118 | 318 ft | 6 kts | 225° |
| 2026-05-07 23:29 | 41.25341 | 28.73061 | 318 ft | 7 kts | 267° |
| 2026-05-07 23:29 | 41.25339 | 28.72981 | 318 ft | 12 kts | 269° |
| 2026-05-07 23:30 | 41.25338 | 28.72849 | 318 ft | 15 kts | 269° |
| 2026-05-07 23:30 | 41.25336 | 28.72699 | 318 ft | 18 kts | 269° |
| 2026-05-07 23:30 | 41.25334 | 28.72529 | 318 ft | 18 kts | 269° |
| 2026-05-07 23:30 | 41.25332 | 28.72380 | 318 ft | 13 kts | 269° |
| 2026-05-07 23:31 | 41.25344 | 28.72284 | 318 ft | 10 kts | 296° |
| 2026-05-07 23:31 | 41.25400 | 28.72218 | 317 ft | 12 kts | 339° |
| 2026-05-07 23:31 | 41.25494 | 28.72206 | 316 ft | 15 kts | 359° |
| 2026-05-07 23:31 | 41.25604 | 28.72203 | 318 ft | 17 kts | 359° |
| 2026-05-07 23:32 | 41.25729 | 28.72203 | 318 ft | 19 kts | 3° |
| 2026-05-07 23:32 | 41.25858 | 28.72224 | 319 ft | 19 kts | 7° |
| 2026-05-07 23:32 | 41.25986 | 28.72248 | 317 ft | 19 kts | 8° |
| 2026-05-07 23:32 | 41.26115 | 28.72271 | 318 ft | 19 kts | 7° |
| 2026-05-07 23:33 | 41.26243 | 28.72292 | 319 ft | 19 kts | 4° |
| 2026-05-07 23:33 | 41.26373 | 28.72292 | 319 ft | 19 kts | 359° |
| 2026-05-07 23:33 | 41.26496 | 28.72290 | 319 ft | 15 kts | 359° |
| 2026-05-07 23:33 | 41.26577 | 28.72289 | 318 ft | 9 kts | 359° |
| 2026-05-07 23:34 | 41.26621 | 28.72288 | 318 ft | 7 kts | 359° |
| 2026-05-07 23:34 | 41.26692 | 28.72287 | 318 ft | 15 kts | 359° |
| 2026-05-07 23:34 | 41.26816 | 28.72285 | 317 ft | 19 kts | 359° |
| 2026-05-07 23:34 | 41.26947 | 28.72282 | 318 ft | 19 kts | 359° |
| 2026-05-07 23:35 | 41.27078 | 28.72279 | 316 ft | 19 kts | 359° |
| 2026-05-07 23:35 | 41.27208 | 28.72277 | 313 ft | 19 kts | 359° |
| 2026-05-07 23:35 | 41.27339 | 28.72274 | 311 ft | 19 kts | 359° |
| 2026-05-07 23:35 | 41.27469 | 28.72272 | 308 ft | 19 kts | 359° |
| 2026-05-07 23:36 | 41.27598 | 28.72270 | 306 ft | 19 kts | 359° |
| 2026-05-07 23:36 | 41.27729 | 28.72267 | 305 ft | 19 kts | 359° |
| 2026-05-07 23:36 | 41.27859 | 28.72265 | 302 ft | 19 kts | 359° |
| 2026-05-07 23:36 | 41.27990 | 28.72262 | 302 ft | 19 kts | 359° |
| 2026-05-07 23:37 | 41.28120 | 28.72260 | 297 ft | 19 kts | 359° |
| 2026-05-07 23:37 | 41.28251 | 28.72257 | 287 ft | 19 kts | 359° |
| 2026-05-07 23:37 | 41.28383 | 28.72255 | 281 ft | 18 kts | 359° |
| 2026-05-07 23:37 | 41.28512 | 28.72252 | 277 ft | 18 kts | 359° |
| 2026-05-07 23:38 | 41.28640 | 28.72250 | 275 ft | 18 kts | 359° |
| 2026-05-07 23:38 | 41.28768 | 28.72247 | 275 ft | 18 kts | 359° |
| 2026-05-07 23:38 | 41.28895 | 28.72245 | 272 ft | 18 kts | 359° |
| 2026-05-07 23:38 | 41.29026 | 28.72242 | 264 ft | 19 kts | 359° |
| 2026-05-07 23:39 | 41.29155 | 28.72240 | 254 ft | 20 kts | 359° |
| 2026-05-07 23:39 | 41.29275 | 28.72238 | 247 ft | 11 kts | 359° |
| 2026-05-07 23:39 | 41.29364 | 28.72236 | 243 ft | 13 kts | 359° |
| 2026-05-07 23:39 | 41.29432 | 28.72235 | 242 ft | 10 kts | 359° |
| 2026-05-07 23:40 | 41.29483 | 28.72263 | 246 ft | 7 kts | 60° |
| 2026-05-07 23:40 | 41.29489 | 28.72330 | 260 ft | 7 kts | 89° |
| 2026-05-07 23:40 | 41.29489 | 28.72396 | 282 ft | 7 kts | 89° |
| 2026-05-07 23:40 | 41.29485 | 28.72441 | 293 ft | 4 kts | 115° |
| 2026-05-07 23:41 | 41.29464 | 28.72457 | 295 ft | 3 kts | 166° |
| 2026-05-07 23:41 | 41.29440 | 28.72458 | 293 ft | 4 kts | 178° |
| 2026-05-07 23:41 | 41.29382 | 28.72460 | 289 ft | 20 kts | 179° |
| 2026-05-07 23:41 | 41.29031 | 28.72469 | 300 ft | 85 kts | 179° |
| 2026-05-07 23:42 | 41.28219 | 28.72487 | 315 ft | 149 kts | 179° |
| 2026-05-07 23:42 | 41.27004 | 28.72510 | 335 ft | 196 kts | 178° |
| 2026-05-07 23:42 | 41.25629 | 28.72570 | 829 ft | 199 kts | 177° |
| 2026-05-07 23:42 | 41.24219 | 28.72670 | 1367 ft | 207 kts | 179° |
| 2026-05-07 23:43 | 41.22729 | 28.72788 | 1647 ft | 224 kts | 181° |
| 2026-05-07 23:43 | 41.21132 | 28.72861 | 1972 ft | 234 kts | 182° |
| 2026-05-07 23:43 | 41.19446 | 28.72917 | 2209 ft | 250 kts | 183° |
| 2026-05-07 23:43 | 41.17723 | 28.72667 | 2754 ft | 248 kts | 201° |
| 2026-05-07 23:44 | 41.16251 | 28.71499 | 3160 ft | 249 kts | 232° |
| 2026-05-07 23:44 | 41.15225 | 28.69709 | 3801 ft | 244 kts | 234° |
| 2026-05-07 23:44 | 41.14051 | 28.68033 | 4288 ft | 250 kts | 225° |
| 2026-05-07 23:44 | 41.12745 | 28.66470 | 4863 ft | 251 kts | 222° |
| 2026-05-07 23:45 | 41.11225 | 28.65282 | 5277 ft | 264 kts | 198° |
| 2026-05-07 23:45 | 41.09348 | 28.65202 | 5651 ft | 277 kts | 170° |
| 2026-05-07 23:45 | 41.07510 | 28.65864 | 6387 ft | 272 kts | 166° |
| 2026-05-07 23:45 | 41.05662 | 28.66492 | 6887 ft | 277 kts | 171° |
| 2026-05-07 23:46 | 41.03746 | 28.66959 | 7365 ft | 282 kts | 173° |
| 2026-05-07 23:46 | 41.01800 | 28.67359 | 7907 ft | 285 kts | 174° |
| 2026-05-07 23:46 | 40.99832 | 28.67731 | 8450 ft | 287 kts | 174° |
| 2026-05-07 23:46 | 40.97845 | 28.68090 | 9027 ft | 289 kts | 174° |
| 2026-05-07 23:47 | 40.95844 | 28.68445 | 9562 ft | 291 kts | 174° |
| 2026-05-07 23:47 | 40.93819 | 28.68800 | 10096 ft | 295 kts | 174° |
| 2026-05-07 23:47 | 40.91756 | 28.69162 | 10365 ft | 307 kts | 174° |
| 2026-05-07 23:47 | 40.89569 | 28.69529 | 10505 ft | 325 kts | 175° |
| 2026-05-07 23:48 | 40.87260 | 28.69892 | 10649 ft | 344 kts | 175° |
| 2026-05-07 23:48 | 40.84844 | 28.70267 | 10800 ft | 363 kts | 175° |
| 2026-05-07 23:48 | 40.82289 | 28.70667 | 11130 ft | 375 kts | 175° |
| 2026-05-07 23:48 | 40.79687 | 28.71220 | 11519 ft | 382 kts | 163° |
| 2026-05-07 23:49 | 40.77347 | 28.72953 | 11989 ft | 393 kts | 137° |
| 2026-05-07 23:49 | 40.75681 | 28.75808 | 12778 ft | 395 kts | 118° |
| 2026-05-07 23:49 | 40.74656 | 28.79178 | 13594 ft | 397 kts | 103° |
| 2026-05-07 23:49 | 40.74258 | 28.82781 | 14195 ft | 400 kts | 94° |
| 2026-05-07 23:50 | 40.74073 | 28.86482 | 14732 ft | 407 kts | 92° |
| 2026-05-07 23:50 | 40.73939 | 28.90234 | 15383 ft | 411 kts | 91° |
| 2026-05-07 23:50 | 40.73811 | 28.94020 | 16051 ft | 415 kts | 92° |
| 2026-05-07 23:50 | 40.73671 | 28.97835 | 16687 ft | 420 kts | 92° |
| 2026-05-07 23:51 | 40.73513 | 29.01701 | 17302 ft | 424 kts | 92° |
| 2026-05-07 23:51 | 40.73340 | 29.05605 | 17911 ft | 429 kts | 92° |
| 2026-05-07 23:51 | 40.73154 | 29.09560 | 18510 ft | 434 kts | 92° |
| 2026-05-07 23:51 | 40.72959 | 29.13549 | 19050 ft | 438 kts | 93° |
| 2026-05-07 23:52 | 40.72759 | 29.17560 | 19637 ft | 440 kts | 93° |
| 2026-05-07 23:52 | 40.72557 | 29.21553 | 20202 ft | 443 kts | 93° |
| 2026-05-07 23:52 | 40.72351 | 29.25622 | 20751 ft | 446 kts | 93° |
| 2026-05-07 23:52 | 40.72141 | 29.29723 | 21281 ft | 450 kts | 93° |
| 2026-05-07 23:53 | 40.71928 | 29.33858 | 21803 ft | 454 kts | 93° |
| 2026-05-07 23:53 | 40.71713 | 29.38024 | 22332 ft | 457 kts | 93° |
| 2026-05-07 23:53 | 40.71494 | 29.42223 | 22831 ft | 461 kts | 93° |
| 2026-05-07 23:53 | 40.71273 | 29.46449 | 23344 ft | 464 kts | 93° |
| 2026-05-07 23:54 | 40.71048 | 29.50712 | 23830 ft | 468 kts | 93° |
| 2026-05-07 23:54 | 40.70819 | 29.55004 | 24266 ft | 470 kts | 93° |
| 2026-05-07 23:54 | 40.70588 | 29.59321 | 24682 ft | 473 kts | 93° |
| 2026-05-07 23:54 | 40.70354 | 29.63662 | 25083 ft | 476 kts | 93° |
| 2026-05-07 23:55 | 40.70117 | 29.68032 | 25481 ft | 480 kts | 93° |
| 2026-05-07 23:55 | 40.69878 | 29.72423 | 25878 ft | 483 kts | 93° |
| 2026-05-07 23:55 | 40.69633 | 29.76849 | 26261 ft | 486 kts | 93° |
| 2026-05-07 23:55 | 40.69386 | 29.81314 | 26638 ft | 489 kts | 93° |
| 2026-05-07 23:56 | 40.69222 | 29.84274 | 26884 ft | 491 kts | 92° |
| 2026-05-07 23:56 | 40.68970 | 29.88771 | 27247 ft | 494 kts | 92° |
| 2026-05-07 23:56 | 40.68714 | 29.93293 | 27604 ft | 497 kts | 93° |
| 2026-05-07 23:56 | 40.68455 | 29.97848 | 27950 ft | 500 kts | 92° |
| 2026-05-07 23:57 | 40.68193 | 30.02425 | 28276 ft | 503 kts | 92° |
| 2026-05-07 23:57 | 40.67927 | 30.07031 | 28615 ft | 505 kts | 92° |
| 2026-05-07 23:57 | 40.67659 | 30.11655 | 28950 ft | 508 kts | 92° |
| 2026-05-07 23:57 | 40.67387 | 30.16292 | 29235 ft | 510 kts | 93° |
| 2026-05-07 23:58 | 40.67112 | 30.20966 | 29604 ft | 510 kts | 92° |
| 2026-05-07 23:58 | 40.66837 | 30.25614 | 30061 ft | 509 kts | 93° |
| 2026-05-07 23:58 | 40.66560 | 30.30262 | 30461 ft | 508 kts | 93° |
| 2026-05-07 23:58 | 40.66232 | 30.34895 | 30815 ft | 508 kts | 94° |
| 2026-05-07 23:59 | 40.65847 | 30.39514 | 31158 ft | 507 kts | 95° |
| 2026-05-07 23:59 | 40.65441 | 30.44137 | 31523 ft | 506 kts | 95° |
| 2026-05-07 23:59 | 40.65038 | 30.48724 | 31860 ft | 505 kts | 94° |
| 2026-05-07 23:59 | 40.64643 | 30.53324 | 32182 ft | 504 kts | 94° |
| 2026-05-08 00:00 | 40.64257 | 30.57905 | 32489 ft | 504 kts | 94° |
| 2026-05-08 00:00 | 40.63878 | 30.62428 | 32787 ft | 503 kts | 94° |
| 2026-05-08 00:00 | 40.63492 | 30.67003 | 33069 ft | 503 kts | 94° |
| 2026-05-08 00:00 | 40.63015 | 30.71588 | 33134 ft | 508 kts | 98° |
| 2026-05-08 00:01 | 40.61242 | 30.80603 | 33171 ft | 508 kts | 104° |
| 2026-05-08 00:01 | 40.59279 | 30.89495 | 33182 ft | 504 kts | 104° |
| 2026-05-08 00:02 | 40.57370 | 30.98354 | 33187 ft | 502 kts | 103° |
| 2026-05-08 00:02 | 40.55485 | 31.07214 | 33197 ft | 503 kts | 103° |
| 2026-05-08 00:03 | 40.53589 | 31.16091 | 33194 ft | 505 kts | 103° |
| 2026-05-08 00:03 | 40.51687 | 31.24930 | 33211 ft | 506 kts | 103° |
| 2026-05-08 00:04 | 40.49752 | 31.33861 | 33214 ft | 509 kts | 103° |
| 2026-05-08 00:04 | 40.47807 | 31.42816 | 33197 ft | 511 kts | 103° |
| 2026-05-08 00:05 | 40.45849 | 31.51795 | 33207 ft | 511 kts | 103° |
| 2026-05-08 00:05 | 40.43886 | 31.60769 | 33216 ft | 511 kts | 103° |
| 2026-05-08 00:06 | 40.41916 | 31.69746 | 33205 ft | 512 kts | 103° |
| 2026-05-08 00:06 | 40.39939 | 31.78718 | 33212 ft | 511 kts | 103° |
| 2026-05-08 00:07 | 40.37971 | 31.87619 | 33212 ft | 511 kts | 103° |
| 2026-05-08 00:07 | 40.35982 | 31.96576 | 33223 ft | 512 kts | 103° |
| 2026-05-08 00:08 | 40.33969 | 32.05540 | 33221 ft | 512 kts | 103° |
| 2026-05-08 00:08 | 40.32011 | 32.14504 | 33230 ft | 511 kts | 101° |
| 2026-05-08 00:09 | 40.30258 | 32.23527 | 33224 ft | 511 kts | 101° |
| 2026-05-08 00:09 | 40.28517 | 32.32572 | 33222 ft | 511 kts | 101° |
| 2026-05-08 00:10 | 40.26737 | 32.41588 | 33233 ft | 512 kts | 101° |
| 2026-05-08 00:10 | 40.24942 | 32.50554 | 33227 ft | 513 kts | 101° |
| 2026-05-08 00:11 | 40.23127 | 32.59583 | 33225 ft | 514 kts | 101° |
| 2026-05-08 00:11 | 40.21304 | 32.68620 | 33231 ft | 514 kts | 101° |
| 2026-05-08 00:12 | 40.19472 | 32.77666 | 33224 ft | 514 kts | 101° |
| 2026-05-08 00:12 | 40.17634 | 32.86711 | 33213 ft | 515 kts | 101° |
| 2026-05-08 00:13 | 40.15801 | 32.95756 | 33216 ft | 513 kts | 99° |
| 2026-05-08 00:13 | 40.14811 | 33.04921 | 33219 ft | 506 kts | 88° |
| 2026-05-08 00:14 | 40.14948 | 33.14047 | 33212 ft | 501 kts | 82° |
| 2026-05-08 00:14 | 40.15272 | 33.23150 | 33214 ft | 501 kts | 82° |
| 2026-05-08 00:15 | 40.15553 | 33.32246 | 33219 ft | 500 kts | 83° |
| 2026-05-08 00:15 | 40.15802 | 33.41336 | 33215 ft | 500 kts | 83° |
| 2026-05-08 00:16 | 40.16039 | 33.50426 | 33198 ft | 500 kts | 83° |
| 2026-05-08 00:16 | 40.16270 | 33.59453 | 33201 ft | 500 kts | 83° |
| 2026-05-08 00:17 | 40.16498 | 33.68553 | 33183 ft | 500 kts | 83° |
| 2026-05-08 00:17 | 40.16719 | 33.77663 | 33188 ft | 500 kts | 83° |
| 2026-05-08 00:18 | 40.16459 | 33.86794 | 33187 ft | 507 kts | 94° |
| 2026-05-08 00:18 | 40.15127 | 33.95869 | 33180 ft | 509 kts | 97° |
| 2026-05-08 00:19 | 40.13999 | 34.04911 | 33191 ft | 506 kts | 93° |
| 2026-05-08 00:19 | 40.13088 | 34.14036 | 33188 ft | 506 kts | 93° |
| 2026-05-08 00:20 | 40.12152 | 34.23146 | 33180 ft | 507 kts | 93° |
| 2026-05-08 00:20 | 40.11160 | 34.32276 | 33187 ft | 507 kts | 94° |
| 2026-05-08 00:21 | 40.10143 | 34.41410 | 33192 ft | 508 kts | 94° |
| 2026-05-08 00:21 | 40.09118 | 34.50541 | 33192 ft | 508 kts | 94° |
| 2026-05-08 00:22 | 40.08089 | 34.59677 | 33195 ft | 509 kts | 94° |
| 2026-05-08 00:22 | 40.07052 | 34.68821 | 33205 ft | 509 kts | 94° |
| 2026-05-08 00:23 | 40.06009 | 34.77956 | 33201 ft | 508 kts | 94° |
| 2026-05-08 00:23 | 40.04960 | 34.87081 | 33210 ft | 508 kts | 94° |
| 2026-05-08 00:24 | 40.03905 | 34.96191 | 33205 ft | 508 kts | 94° |
| 2026-05-08 00:24 | 40.02842 | 35.05302 | 33210 ft | 508 kts | 94° |
| 2026-05-08 00:25 | 40.01779 | 35.14352 | 33204 ft | 507 kts | 95° |
| 2026-05-08 00:25 | 40.00704 | 35.23445 | 33214 ft | 507 kts | 95° |
| 2026-05-08 00:26 | 39.99622 | 35.32536 | 33212 ft | 507 kts | 95° |
| 2026-05-08 00:26 | 39.98517 | 35.41620 | 33215 ft | 507 kts | 95° |
| 2026-05-08 00:27 | 39.97366 | 35.50704 | 33211 ft | 507 kts | 95° |
| 2026-05-08 00:27 | 39.96208 | 35.59774 | 33218 ft | 507 kts | 96° |
| 2026-05-08 00:28 | 39.95050 | 35.68839 | 33231 ft | 507 kts | 96° |
| 2026-05-08 00:28 | 39.93888 | 35.77897 | 33232 ft | 507 kts | 96° |
| 2026-05-08 00:29 | 39.92727 | 35.86889 | 33244 ft | 506 kts | 96° |
| 2026-05-08 00:29 | 39.91551 | 35.95937 | 33240 ft | 507 kts | 96° |
| 2026-05-08 00:30 | 39.90354 | 36.05079 | 33253 ft | 517 kts | 96° |
| 2026-05-08 00:30 | 39.89130 | 36.14364 | 33252 ft | 522 kts | 96° |
| 2026-05-08 00:31 | 39.87891 | 36.23707 | 33231 ft | 524 kts | 96° |
| 2026-05-08 00:31 | 39.86593 | 36.33055 | 33255 ft | 525 kts | 98° |
| 2026-05-08 00:32 | 39.85222 | 36.42391 | 33257 ft | 524 kts | 97° |
| 2026-05-08 00:32 | 39.84002 | 36.51737 | 33255 ft | 523 kts | 96° |
| 2026-05-08 00:33 | 39.82784 | 36.61061 | 33263 ft | 522 kts | 97° |
| 2026-05-08 00:33 | 39.81743 | 36.68800 | 33256 ft | 521 kts | 97° |
| 2026-05-08 00:34 | 39.80564 | 36.77480 | 33260 ft | 520 kts | 97° |
| 2026-05-08 00:34 | 39.79432 | 36.86756 | 33273 ft | 517 kts | 91° |
| 2026-05-08 00:35 | 39.79385 | 36.96058 | 33266 ft | 512 kts | 81° |
| 2026-05-08 00:35 | 39.80190 | 37.05247 | 33271 ft | 511 kts | 79° |
| 2026-05-08 00:36 | 39.80995 | 37.14445 | 33269 ft | 512 kts | 80° |
| 2026-05-08 00:36 | 39.81741 | 37.23592 | 33252 ft | 512 kts | 81° |
| 2026-05-08 00:37 | 39.82472 | 37.32814 | 33242 ft | 512 kts | 81° |
| 2026-05-08 00:38 | 39.83561 | 37.46645 | 33236 ft | 512 kts | 81° |
| 2026-05-08 00:38 | 39.84267 | 37.55861 | 33231 ft | 511 kts | 81° |
| 2026-05-08 00:39 | 39.84962 | 37.65070 | 33227 ft | 511 kts | 81° |
| 2026-05-08 00:39 | 39.85652 | 37.74266 | 33220 ft | 510 kts | 81° |
| 2026-05-08 00:40 | 39.86334 | 37.83444 | 33194 ft | 510 kts | 81° |
| 2026-05-08 00:40 | 39.87009 | 37.92630 | 33208 ft | 509 kts | 82° |
| 2026-05-08 00:41 | 39.87673 | 38.01742 | 33206 ft | 509 kts | 82° |
| 2026-05-08 00:41 | 39.88343 | 38.10926 | 33196 ft | 510 kts | 82° |
| 2026-05-08 00:42 | 39.89007 | 38.20134 | 33213 ft | 511 kts | 82° |
| 2026-05-08 00:42 | 39.89664 | 38.29353 | 33208 ft | 511 kts | 82° |
| 2026-05-08 00:43 | 39.90315 | 38.38584 | 33208 ft | 512 kts | 82° |
| 2026-05-08 00:43 | 39.90851 | 38.46266 | 33219 ft | 512 kts | 82° |
| 2026-05-08 00:44 | 39.91489 | 38.55509 | 33216 ft | 512 kts | 82° |
| 2026-05-08 00:44 | 39.92118 | 38.64748 | 33217 ft | 512 kts | 82° |
| 2026-05-08 00:45 | 39.92740 | 38.73981 | 33212 ft | 512 kts | 82° |
| 2026-05-08 00:45 | 39.93355 | 38.83213 | 33208 ft | 511 kts | 82° |
| 2026-05-08 00:46 | 39.93835 | 38.92452 | 33203 ft | 512 kts | 86° |
| 2026-05-08 00:46 | 39.93943 | 39.01722 | 33217 ft | 512 kts | 86° |
| 2026-05-08 00:47 | 39.94061 | 39.10999 | 33210 ft | 512 kts | 86° |
| 2026-05-08 00:47 | 39.94212 | 39.20219 | 33222 ft | 513 kts | 86° |
| 2026-05-08 00:48 | 39.94360 | 39.29513 | 33212 ft | 514 kts | 86° |
| 2026-05-08 00:48 | 39.94496 | 39.38844 | 33217 ft | 514 kts | 86° |
| 2026-05-08 00:49 | 39.94625 | 39.48166 | 33221 ft | 515 kts | 86° |
| 2026-05-08 00:49 | 39.94748 | 39.57507 | 33216 ft | 515 kts | 86° |
| 2026-05-08 00:50 | 39.94863 | 39.66844 | 33218 ft | 515 kts | 86° |
| 2026-05-08 00:50 | 39.94972 | 39.76182 | 33219 ft | 515 kts | 86° |
| 2026-05-08 00:51 | 39.95076 | 39.85470 | 33221 ft | 515 kts | 86° |
| 2026-05-08 00:51 | 39.95170 | 39.94802 | 33226 ft | 515 kts | 87° |
| 2026-05-08 00:52 | 39.95251 | 40.04133 | 33227 ft | 514 kts | 87° |
| 2026-05-08 00:52 | 39.95323 | 40.13450 | 33231 ft | 514 kts | 87° |
| 2026-05-08 00:53 | 39.95392 | 40.22762 | 33232 ft | 513 kts | 87° |
| 2026-05-08 00:53 | 39.95454 | 40.32079 | 33227 ft | 513 kts | 88° |
| 2026-05-08 00:54 | 39.95506 | 40.41337 | 33239 ft | 513 kts | 88° |
| 2026-05-08 00:54 | 39.95551 | 40.50657 | 33239 ft | 514 kts | 88° |
| 2026-05-08 00:55 | 39.95589 | 40.59979 | 33239 ft | 514 kts | 88° |
| 2026-05-08 00:55 | 39.95621 | 40.69302 | 33238 ft | 514 kts | 88° |
| 2026-05-08 00:56 | 39.95646 | 40.78634 | 33241 ft | 515 kts | 88° |
| 2026-05-08 00:56 | 39.95663 | 40.87913 | 33243 ft | 515 kts | 88° |
| 2026-05-08 00:57 | 39.95673 | 40.97252 | 33238 ft | 515 kts | 88° |
| 2026-05-08 00:57 | 39.95676 | 41.06592 | 33239 ft | 515 kts | 89° |
| 2026-05-08 00:58 | 39.95673 | 41.15939 | 33240 ft | 515 kts | 89° |
| 2026-05-08 00:58 | 39.95920 | 41.25250 | 33245 ft | 514 kts | 83° |
| 2026-05-08 00:59 | 39.96653 | 41.34531 | 33243 ft | 514 kts | 83° |
| 2026-05-08 00:59 | 39.97383 | 41.43796 | 33244 ft | 514 kts | 83° |
| 2026-05-08 01:00 | 39.98067 | 41.53081 | 33235 ft | 514 kts | 83° |
| 2026-05-08 01:00 | 39.98727 | 41.62293 | 33220 ft | 514 kts | 84° |
| 2026-05-08 01:01 | 39.99390 | 41.71573 | 33236 ft | 514 kts | 84° |
| 2026-05-08 01:01 | 40.00054 | 41.80836 | 33242 ft | 513 kts | 84° |
| 2026-05-08 01:02 | 40.00729 | 41.90111 | 33241 ft | 514 kts | 84° |
| 2026-05-08 01:02 | 40.01399 | 41.99406 | 33244 ft | 514 kts | 84° |
| 2026-05-08 01:03 | 40.02057 | 42.08694 | 33235 ft | 514 kts | 84° |
| 2026-05-08 01:03 | 40.02708 | 42.17984 | 33247 ft | 514 kts | 84° |
| 2026-05-08 01:04 | 40.03351 | 42.27282 | 33240 ft | 515 kts | 84° |
| 2026-05-08 01:04 | 40.03989 | 42.36594 | 33245 ft | 515 kts | 85° |
| 2026-05-08 01:05 | 40.04613 | 42.45860 | 33240 ft | 515 kts | 85° |
| 2026-05-08 01:05 | 40.05194 | 42.55187 | 33236 ft | 515 kts | 85° |
| 2026-05-08 01:06 | 40.05759 | 42.64509 | 33237 ft | 516 kts | 85° |
| 2026-05-08 01:06 | 40.06323 | 42.73850 | 33234 ft | 516 kts | 85° |
| 2026-05-08 01:07 | 40.06883 | 42.83186 | 33231 ft | 516 kts | 86° |
| 2026-05-08 01:07 | 40.07436 | 42.92538 | 33224 ft | 517 kts | 86° |
| 2026-05-08 01:08 | 40.07983 | 43.01896 | 33224 ft | 517 kts | 86° |
| 2026-05-08 01:08 | 40.08522 | 43.11205 | 33229 ft | 518 kts | 86° |
| 2026-05-08 01:09 | 40.09059 | 43.20603 | 33226 ft | 519 kts | 86° |
| 2026-05-08 01:09 | 40.09587 | 43.29998 | 33220 ft | 519 kts | 86° |
| 2026-05-08 01:10 | 40.10108 | 43.39412 | 33218 ft | 519 kts | 86° |
| 2026-05-08 01:10 | 40.10619 | 43.48818 | 33206 ft | 519 kts | 87° |
| 2026-05-08 01:11 | 40.11122 | 43.58235 | 33199 ft | 520 kts | 87° |
| 2026-05-08 01:11 | 40.11699 | 43.67668 | 33193 ft | 521 kts | 83° |
| 2026-05-08 01:12 | 40.13004 | 43.76942 | 33186 ft | 522 kts | 79° |
| 2026-05-08 01:12 | 40.14438 | 43.86248 | 33185 ft | 522 kts | 80° |
| 2026-05-08 01:13 | 40.15836 | 43.95563 | 33180 ft | 522 kts | 80° |
| 2026-05-08 01:13 | 40.17197 | 44.04894 | 33173 ft | 522 kts | 81° |
| 2026-05-08 01:14 | 40.18541 | 44.14224 | 33163 ft | 523 kts | 81° |
| 2026-05-08 01:14 | 40.19884 | 44.23598 | 33156 ft | 524 kts | 81° |
| 2026-05-08 01:15 | 40.21216 | 44.32927 | 33160 ft | 524 kts | 81° |
| 2026-05-08 01:15 | 40.22550 | 44.42326 | 33159 ft | 526 kts | 82° |
| 2026-05-08 01:16 | 40.23878 | 44.51744 | 33152 ft | 527 kts | 82° |
| 2026-05-08 01:16 | 40.25201 | 44.61183 | 33165 ft | 528 kts | 82° |
| 2026-05-08 01:17 | 40.26520 | 44.70653 | 33161 ft | 529 kts | 82° |
| 2026-05-08 01:17 | 40.27828 | 44.80102 | 33168 ft | 530 kts | 82° |
| 2026-05-08 01:18 | 40.29138 | 44.89627 | 33168 ft | 532 kts | 83° |
| 2026-05-08 01:18 | 40.30443 | 44.99174 | 33162 ft | 533 kts | 83° |
| 2026-05-08 01:19 | 40.31744 | 45.08755 | 33175 ft | 533 kts | 83° |
| 2026-05-08 01:19 | 40.33035 | 45.18326 | 33176 ft | 534 kts | 83° |
| 2026-05-08 01:20 | 40.34323 | 45.27932 | 33176 ft | 535 kts | 83° |
| 2026-05-08 01:20 | 40.35596 | 45.37491 | 33180 ft | 536 kts | 84° |
| 2026-05-08 01:21 | 40.36871 | 45.47133 | 33181 ft | 537 kts | 84° |
| 2026-05-08 01:21 | 40.38142 | 45.56801 | 33200 ft | 538 kts | 84° |
| 2026-05-08 01:22 | 40.39415 | 45.66493 | 33177 ft | 541 kts | 84° |
| 2026-05-08 01:22 | 40.40816 | 45.76213 | 33192 ft | 541 kts | 83° |
| 2026-05-08 01:23 | 40.42264 | 45.85923 | 33173 ft | 542 kts | 83° |
| 2026-05-08 01:23 | 40.43692 | 45.95677 | 33158 ft | 544 kts | 83° |
| 2026-05-08 01:24 | 40.45095 | 46.05439 | 33171 ft | 544 kts | 84° |
| 2026-05-08 01:24 | 40.46486 | 46.15210 | 33162 ft | 545 kts | 84° |
| 2026-05-08 01:25 | 40.47866 | 46.24945 | 33156 ft | 546 kts | 84° |
| 2026-05-08 01:25 | 40.49247 | 46.34757 | 33157 ft | 546 kts | 84° |
| 2026-05-08 01:26 | 40.50622 | 46.44570 | 33159 ft | 546 kts | 84° |
| 2026-05-08 01:26 | 40.51992 | 46.54406 | 33154 ft | 547 kts | 84° |
| 2026-05-08 01:27 | 40.53353 | 46.64262 | 33154 ft | 547 kts | 84° |
| 2026-05-08 01:27 | 40.54706 | 46.74114 | 33169 ft | 548 kts | 84° |
| 2026-05-08 01:28 | 40.56044 | 46.83931 | 33160 ft | 549 kts | 85° |
| 2026-05-08 01:28 | 40.57386 | 46.93835 | 33157 ft | 550 kts | 85° |
| 2026-05-08 01:29 | 40.58722 | 47.03763 | 33149 ft | 551 kts | 85° |
| 2026-05-08 01:29 | 40.60049 | 47.13712 | 33148 ft | 551 kts | 86° |
| 2026-05-08 01:30 | 40.60650 | 47.23691 | 33146 ft | 542 kts | 98° |
| 2026-05-08 01:30 | 40.60310 | 47.33587 | 33152 ft | 542 kts | 99° |
| 2026-05-08 01:31 | 40.59953 | 47.43512 | 33157 ft | 543 kts | 99° |
| 2026-05-08 01:31 | 40.59647 | 47.53388 | 33150 ft | 545 kts | 98° |
| 2026-05-08 01:32 | 40.59351 | 47.63353 | 33152 ft | 545 kts | 98° |
| 2026-05-08 01:32 | 40.59042 | 47.73339 | 33157 ft | 545 kts | 99° |
| 2026-05-08 01:33 | 40.58775 | 47.81639 | 33145 ft | 545 kts | 99° |
| 2026-05-08 01:33 | 40.58447 | 47.91613 | 33149 ft | 545 kts | 99° |
| 2026-05-08 01:34 | 40.58017 | 48.01558 | 33145 ft | 542 kts | 101° |
| 2026-05-08 01:34 | 40.57301 | 48.11418 | 33132 ft | 541 kts | 103° |
| 2026-05-08 01:35 | 40.56547 | 48.21187 | 33153 ft | 540 kts | 102° |
| 2026-05-08 01:35 | 40.55827 | 48.31038 | 33143 ft | 541 kts | 102° |
| 2026-05-08 01:36 | 40.55127 | 48.40906 | 33153 ft | 542 kts | 102° |
| 2026-05-08 01:36 | 40.54421 | 48.50780 | 33153 ft | 542 kts | 102° |
| 2026-05-08 01:37 | 40.53704 | 48.60659 | 33152 ft | 543 kts | 102° |
| 2026-05-08 01:37 | 40.52974 | 48.70542 | 33149 ft | 542 kts | 102° |
| 2026-05-08 01:38 | 40.52242 | 48.80339 | 33154 ft | 542 kts | 102° |
| 2026-05-08 01:38 | 40.51497 | 48.90199 | 33144 ft | 542 kts | 102° |
| 2026-05-08 01:39 | 40.50745 | 49.00052 | 33135 ft | 542 kts | 102° |
| 2026-05-08 01:39 | 40.49983 | 49.09906 | 33130 ft | 542 kts | 102° |
| 2026-05-08 01:40 | 40.49213 | 49.19752 | 33123 ft | 542 kts | 102° |
| 2026-05-08 01:40 | 40.48436 | 49.29600 | 33115 ft | 542 kts | 102° |
| 2026-05-08 01:41 | 40.47649 | 49.39453 | 33103 ft | 542 kts | 102° |
| 2026-05-08 01:41 | 40.46858 | 49.49252 | 33094 ft | 542 kts | 102° |
| 2026-05-08 01:42 | 40.46055 | 49.59098 | 33092 ft | 542 kts | 102° |
| 2026-05-08 01:42 | 40.45244 | 49.68931 | 33087 ft | 542 kts | 102° |
| 2026-05-08 01:43 | 40.44425 | 49.78761 | 33099 ft | 541 kts | 102° |
| 2026-05-08 01:43 | 40.43598 | 49.88586 | 33096 ft | 541 kts | 102° |
| 2026-05-08 01:44 | 40.42763 | 49.98412 | 33105 ft | 542 kts | 102° |
| 2026-05-08 01:44 | 40.41926 | 50.08238 | 33099 ft | 542 kts | 102° |
| 2026-05-08 01:45 | 40.41233 | 50.18115 | 33097 ft | 544 kts | 101° |
| 2026-05-08 01:45 | 40.40601 | 50.28010 | 33097 ft | 544 kts | 101° |
| 2026-05-08 01:46 | 40.39939 | 50.37901 | 33087 ft | 544 kts | 101° |
| 2026-05-08 01:46 | 40.39249 | 50.47771 | 33089 ft | 544 kts | 101° |
| 2026-05-08 01:47 | 40.38552 | 50.57590 | 33104 ft | 543 kts | 101° |
| 2026-05-08 01:47 | 40.37847 | 50.67453 | 33093 ft | 543 kts | 101° |
| 2026-05-08 01:48 | 40.36776 | 50.82230 | 33108 ft | 542 kts | 101° |
| 2026-05-08 01:48 | 40.36712 | 50.92179 | 33118 ft | 550 kts | 89° |
| 2026-05-08 01:49 | 40.37934 | 51.02118 | 33120 ft | 555 kts | 79° |
| 2026-05-08 01:49 | 40.39807 | 51.11940 | 33121 ft | 555 kts | 79° |
| 2026-05-08 01:50 | 40.41649 | 51.21776 | 33120 ft | 554 kts | 80° |
| 2026-05-08 01:50 | 40.43413 | 51.31618 | 33121 ft | 554 kts | 80° |
| 2026-05-08 01:51 | 40.45163 | 51.41479 | 33119 ft | 553 kts | 82° |
| 2026-05-08 01:51 | 40.45795 | 51.51424 | 33123 ft | 543 kts | 97° |
| 2026-05-08 01:52 | 40.44764 | 51.61127 | 33127 ft | 532 kts | 110° |
| 2026-05-08 01:52 | 40.42957 | 51.70489 | 33122 ft | 533 kts | 110° |
| 2026-05-08 01:53 | 40.41145 | 51.79956 | 33120 ft | 536 kts | 110° |
| 2026-05-08 01:53 | 40.39375 | 51.89468 | 33125 ft | 537 kts | 110° |
| 2026-05-08 01:54 | 40.37611 | 51.99012 | 33122 ft | 539 kts | 110° |
| 2026-05-08 01:54 | 40.35834 | 52.08564 | 33131 ft | 540 kts | 110° |
| 2026-05-08 01:55 | 40.34042 | 52.18127 | 33127 ft | 540 kts | 110° |
| 2026-05-08 01:55 | 40.32239 | 52.27691 | 33116 ft | 540 kts | 110° |
| 2026-05-08 01:56 | 40.30432 | 52.37241 | 33110 ft | 540 kts | 110° |
| 2026-05-08 01:56 | 40.28629 | 52.46727 | 33113 ft | 540 kts | 110° |
| 2026-05-08 01:57 | 40.26506 | 52.56100 | 33109 ft | 532 kts | 120° |
| 2026-05-08 01:57 | 40.23265 | 52.64679 | 33116 ft | 521 kts | 129° |
| 2026-05-08 01:58 | 40.19196 | 52.72460 | 33122 ft | 517 kts | 134° |
| 2026-05-08 01:58 | 40.15062 | 52.80185 | 33129 ft | 520 kts | 133° |
| 2026-05-08 01:59 | 40.10953 | 52.87989 | 33124 ft | 522 kts | 133° |
| 2026-05-08 01:59 | 40.06874 | 52.95863 | 33112 ft | 527 kts | 128° |
| 2026-05-08 02:00 | 40.05368 | 53.00298 | 33130 ft | 545 kts | 114° |
| 2026-05-08 02:00 | 40.04579 | 53.05200 | 33138 ft | 558 kts | 102° |
| 2026-05-08 02:00 | 40.04594 | 53.10306 | 33114 ft | 568 kts | 88° |
| 2026-05-08 02:00 | 40.05109 | 53.15422 | 33140 ft | 570 kts | 86° |
| 2026-05-08 02:01 | 40.06245 | 53.25681 | 33120 ft | 572 kts | 86° |
| 2026-05-08 02:01 | 40.07301 | 53.35973 | 33120 ft | 572 kts | 87° |
| 2026-05-08 02:02 | 40.08255 | 53.46221 | 33102 ft | 572 kts | 88° |
| 2026-05-08 02:02 | 40.09179 | 53.56552 | 33099 ft | 572 kts | 88° |
| 2026-05-08 02:03 | 40.10099 | 53.66874 | 33109 ft | 573 kts | 88° |
| 2026-05-08 02:03 | 40.11019 | 53.77217 | 33117 ft | 573 kts | 88° |
| 2026-05-08 02:04 | 40.11935 | 53.87580 | 33119 ft | 574 kts | 88° |
| 2026-05-08 02:04 | 40.12841 | 53.97940 | 33116 ft | 574 kts | 88° |
| 2026-05-08 02:05 | 40.13738 | 54.08312 | 33117 ft | 575 kts | 88° |
| 2026-05-08 02:05 | 40.14626 | 54.18702 | 33120 ft | 575 kts | 88° |
| 2026-05-08 02:06 | 40.15504 | 54.29090 | 33123 ft | 575 kts | 89° |
| 2026-05-08 02:06 | 40.16374 | 54.39490 | 33133 ft | 576 kts | 89° |
| 2026-05-08 02:07 | 40.17231 | 54.49843 | 33125 ft | 577 kts | 89° |
| 2026-05-08 02:07 | 40.18085 | 54.60282 | 33133 ft | 577 kts | 89° |
| 2026-05-08 02:08 | 40.18930 | 54.70735 | 33122 ft | 578 kts | 89° |
| 2026-05-08 02:08 | 40.19768 | 54.81195 | 33123 ft | 578 kts | 89° |
| 2026-05-08 02:09 | 40.20596 | 54.91667 | 33118 ft | 578 kts | 89° |
| 2026-05-08 02:09 | 40.21414 | 55.02133 | 33122 ft | 579 kts | 89° |
| 2026-05-08 02:10 | 40.22220 | 55.12563 | 33115 ft | 579 kts | 89° |
| 2026-05-08 02:10 | 40.23020 | 55.23054 | 33112 ft | 579 kts | 89° |
| 2026-05-08 02:11 | 40.23811 | 55.33548 | 33112 ft | 579 kts | 89° |
| 2026-05-08 02:11 | 40.24593 | 55.44036 | 33109 ft | 580 kts | 89° |
| 2026-05-08 02:12 | 40.25365 | 55.54543 | 33111 ft | 580 kts | 89° |
| 2026-05-08 02:12 | 40.26126 | 55.65001 | 33112 ft | 580 kts | 89° |
| 2026-05-08 02:13 | 40.27300 | 55.75482 | 33119 ft | 585 kts | 80° |
| 2026-05-08 02:13 | 40.29714 | 55.85676 | 33118 ft | 587 kts | 70° |
| 2026-05-08 02:14 | 40.32639 | 55.95669 | 33119 ft | 587 kts | 70° |
| 2026-05-08 02:14 | 40.35529 | 56.05687 | 33110 ft | 587 kts | 70° |
| 2026-05-08 02:15 | 40.38348 | 56.15729 | 33104 ft | 586 kts | 71° |
| 2026-05-08 02:15 | 40.41141 | 56.25780 | 33107 ft | 585 kts | 71° |
| 2026-05-08 02:16 | 40.43909 | 56.35757 | 33107 ft | 585 kts | 71° |
| 2026-05-08 02:16 | 40.46691 | 56.45801 | 33106 ft | 585 kts | 71° |
| 2026-05-08 02:17 | 40.49462 | 56.55847 | 33101 ft | 584 kts | 71° |
| 2026-05-08 02:17 | 40.52222 | 56.65891 | 33098 ft | 584 kts | 71° |
| 2026-05-08 02:18 | 40.54970 | 56.75938 | 33104 ft | 584 kts | 71° |
| 2026-05-08 02:18 | 40.57703 | 56.85978 | 33099 ft | 583 kts | 71° |
| 2026-05-08 02:19 | 40.60412 | 56.95970 | 33118 ft | 583 kts | 71° |
| 2026-05-08 02:19 | 40.63128 | 57.06023 | 33092 ft | 582 kts | 71° |
| 2026-05-08 02:20 | 40.65831 | 57.16073 | 33107 ft | 581 kts | 71° |
| 2026-05-08 02:20 | 40.68514 | 57.26113 | 33095 ft | 581 kts | 71° |
| 2026-05-08 02:21 | 40.71185 | 57.36152 | 33100 ft | 581 kts | 71° |
| 2026-05-08 02:21 | 40.73853 | 57.46218 | 33094 ft | 580 kts | 71° |
| 2026-05-08 02:22 | 40.76488 | 57.56197 | 33073 ft | 580 kts | 71° |
| 2026-05-08 02:22 | 40.79146 | 57.66236 | 33091 ft | 579 kts | 70° |
| 2026-05-08 02:23 | 40.81968 | 57.76205 | 33080 ft | 579 kts | 69° |
| 2026-05-08 02:23 | 40.84380 | 57.84517 | 33077 ft | 579 kts | 69° |
| 2026-05-08 02:24 | 40.87233 | 57.94456 | 33080 ft | 578 kts | 69° |
| 2026-05-08 02:24 | 40.90048 | 58.04408 | 33077 ft | 578 kts | 69° |
| 2026-05-08 02:25 | 40.92825 | 58.14301 | 33077 ft | 577 kts | 69° |
| 2026-05-08 02:25 | 40.95612 | 58.24261 | 33072 ft | 577 kts | 69° |
| 2026-05-08 02:26 | 40.98391 | 58.34220 | 33076 ft | 576 kts | 69° |
| 2026-05-08 02:26 | 41.01158 | 58.44169 | 33066 ft | 576 kts | 69° |
| 2026-05-08 02:27 | 41.03916 | 58.54128 | 33069 ft | 575 kts | 69° |
| 2026-05-08 02:27 | 41.06663 | 58.64088 | 33070 ft | 574 kts | 69° |
| 2026-05-08 02:28 | 41.09396 | 58.74038 | 33064 ft | 573 kts | 69° |
| 2026-05-08 02:28 | 41.12116 | 58.83978 | 33068 ft | 573 kts | 69° |
| 2026-05-08 02:29 | 41.14809 | 58.93858 | 33063 ft | 573 kts | 69° |
| 2026-05-08 02:29 | 41.17509 | 59.03803 | 33061 ft | 572 kts | 69° |
| 2026-05-08 02:30 | 41.20200 | 59.13757 | 33061 ft | 572 kts | 70° |
| 2026-05-08 02:30 | 41.22879 | 59.23707 | 33062 ft | 572 kts | 70° |
| 2026-05-08 02:31 | 41.25546 | 59.33649 | 33058 ft | 571 kts | 70° |
| 2026-05-08 02:31 | 41.28206 | 59.43606 | 33058 ft | 571 kts | 70° |
| 2026-05-08 02:32 | 41.30837 | 59.53497 | 33051 ft | 570 kts | 70° |
| 2026-05-08 02:32 | 41.33468 | 59.63426 | 33053 ft | 569 kts | 70° |
| 2026-05-08 02:33 | 41.36038 | 59.73409 | 33054 ft | 568 kts | 71° |
| 2026-05-08 02:33 | 41.38448 | 59.83431 | 33049 ft | 568 kts | 72° |
| 2026-05-08 02:34 | 41.40846 | 59.93448 | 33054 ft | 567 kts | 71° |
| 2026-05-08 02:34 | 41.43260 | 60.03450 | 33052 ft | 567 kts | 71° |
| 2026-05-08 02:35 | 41.45670 | 60.13447 | 33046 ft | 566 kts | 71° |
| 2026-05-08 02:35 | 41.48063 | 60.23453 | 33047 ft | 565 kts | 72° |
| 2026-05-08 02:36 | 41.50419 | 60.33456 | 33045 ft | 565 kts | 72° |
| 2026-05-08 02:36 | 41.52742 | 60.43387 | 33050 ft | 564 kts | 72° |
| 2026-05-08 02:37 | 41.55076 | 60.53389 | 33046 ft | 564 kts | 72° |
| 2026-05-08 02:37 | 41.57400 | 60.63379 | 33048 ft | 563 kts | 72° |
| 2026-05-08 02:38 | 41.59831 | 60.73330 | 33044 ft | 562 kts | 70° |
| 2026-05-08 02:38 | 41.62471 | 60.83152 | 33049 ft | 561 kts | 69° |
| 2026-05-08 02:39 | 41.65110 | 60.92985 | 33043 ft | 561 kts | 69° |
| 2026-05-08 02:39 | 41.67692 | 61.02841 | 33043 ft | 561 kts | 70° |
| 2026-05-08 02:40 | 41.70247 | 61.12710 | 33037 ft | 561 kts | 70° |
| 2026-05-08 02:40 | 41.72774 | 61.22507 | 33041 ft | 560 kts | 70° |
| 2026-05-08 02:41 | 41.75310 | 61.32361 | 33038 ft | 559 kts | 70° |
| 2026-05-08 02:41 | 41.77836 | 61.42209 | 33037 ft | 559 kts | 70° |
| 2026-05-08 02:42 | 41.80353 | 61.52067 | 33038 ft | 558 kts | 70° |
| 2026-05-08 02:42 | 41.82857 | 61.61917 | 33032 ft | 558 kts | 70° |
| 2026-05-08 02:43 | 41.85350 | 61.71759 | 33038 ft | 557 kts | 70° |
| 2026-05-08 02:43 | 41.87831 | 61.81607 | 33037 ft | 556 kts | 70° |
| 2026-05-08 02:44 | 41.90295 | 61.91458 | 33036 ft | 556 kts | 70° |
| 2026-05-08 02:44 | 41.92732 | 62.01235 | 33032 ft | 555 kts | 70° |
| 2026-05-08 02:45 | 41.95172 | 62.11057 | 33036 ft | 554 kts | 71° |
| 2026-05-08 02:45 | 41.97606 | 62.20877 | 33031 ft | 553 kts | 71° |
| 2026-05-08 02:46 | 42.00030 | 62.30697 | 33029 ft | 553 kts | 71° |
| 2026-05-08 02:46 | 42.02441 | 62.40510 | 33029 ft | 552 kts | 71° |
| 2026-05-08 02:47 | 42.04843 | 62.50324 | 33025 ft | 551 kts | 71° |
| 2026-05-08 02:47 | 42.07216 | 62.60060 | 33024 ft | 551 kts | 71° |
| 2026-05-08 02:48 | 42.09594 | 62.69864 | 33027 ft | 550 kts | 71° |
| 2026-05-08 02:48 | 42.11963 | 62.79672 | 33017 ft | 550 kts | 71° |
| 2026-05-08 02:49 | 42.14324 | 62.89485 | 33018 ft | 549 kts | 71° |
| 2026-05-08 02:49 | 42.16659 | 62.99226 | 33019 ft | 549 kts | 71° |
| 2026-05-08 02:50 | 42.18998 | 63.09016 | 33022 ft | 548 kts | 71° |
| 2026-05-08 02:50 | 42.21330 | 63.18803 | 33014 ft | 548 kts | 71° |
| 2026-05-08 02:51 | 42.23650 | 63.28585 | 33016 ft | 547 kts | 72° |
| 2026-05-08 02:51 | 42.25957 | 63.38356 | 33007 ft | 546 kts | 72° |
| 2026-05-08 02:52 | 42.28253 | 63.48124 | 33013 ft | 545 kts | 72° |
| 2026-05-08 02:52 | 42.30538 | 63.57889 | 33015 ft | 544 kts | 72° |
| 2026-05-08 02:53 | 42.32797 | 63.67583 | 33007 ft | 544 kts | 72° |
| 2026-05-08 02:53 | 42.35058 | 63.77329 | 33013 ft | 543 kts | 72° |
| 2026-05-08 02:54 | 42.37312 | 63.87090 | 33005 ft | 543 kts | 72° |
| 2026-05-08 02:54 | 42.39558 | 63.96854 | 33011 ft | 543 kts | 72° |
| 2026-05-08 02:55 | 42.42877 | 64.11510 | 33002 ft | 542 kts | 73° |
| 2026-05-08 02:56 | 42.45063 | 64.21286 | 33007 ft | 542 kts | 73° |
| 2026-05-08 02:56 | 42.47243 | 64.30997 | 33008 ft | 542 kts | 73° |
| 2026-05-08 02:57 | 42.49442 | 64.40766 | 33001 ft | 541 kts | 73° |
| 2026-05-08 02:57 | 42.51627 | 64.50517 | 33005 ft | 540 kts | 73° |
| 2026-05-08 02:58 | 42.53799 | 64.60274 | 33010 ft | 540 kts | 73° |
| 2026-05-08 02:58 | 42.55959 | 64.70020 | 33005 ft | 539 kts | 73° |
| 2026-05-08 02:59 | 42.58090 | 64.79682 | 32997 ft | 538 kts | 73° |
| 2026-05-08 02:59 | 42.60225 | 64.89405 | 32992 ft | 537 kts | 73° |
| 2026-05-08 03:00 | 42.62350 | 64.99128 | 32994 ft | 536 kts | 73° |
| 2026-05-08 03:00 | 42.64462 | 65.08831 | 32986 ft | 535 kts | 73° |
| 2026-05-08 03:01 | 42.66563 | 65.18528 | 32995 ft | 534 kts | 73° |
| 2026-05-08 03:01 | 42.68653 | 65.28223 | 32983 ft | 534 kts | 73° |
| 2026-05-08 03:02 | 42.70732 | 65.37907 | 32979 ft | 533 kts | 73° |
| 2026-05-08 03:02 | 42.72799 | 65.47582 | 32954 ft | 533 kts | 73° |
| 2026-05-08 03:03 | 42.74843 | 65.57196 | 32960 ft | 532 kts | 74° |
| 2026-05-08 03:03 | 42.76891 | 65.66872 | 32957 ft | 532 kts | 74° |
| 2026-05-08 03:04 | 42.78930 | 65.76541 | 32967 ft | 531 kts | 74° |
| 2026-05-08 03:04 | 42.80958 | 65.86216 | 32962 ft | 530 kts | 74° |
| 2026-05-08 03:05 | 42.82976 | 65.95882 | 32953 ft | 530 kts | 74° |
| 2026-05-08 03:05 | 42.84984 | 66.05545 | 32941 ft | 530 kts | 74° |
| 2026-05-08 03:06 | 42.86977 | 66.15206 | 32952 ft | 529 kts | 75° |
| 2026-05-08 03:06 | 42.88945 | 66.24879 | 32950 ft | 529 kts | 75° |
| 2026-05-08 03:07 | 42.90904 | 66.34546 | 32928 ft | 528 kts | 75° |
| 2026-05-08 03:07 | 42.92841 | 66.44142 | 32945 ft | 528 kts | 75° |
| 2026-05-08 03:08 | 42.94784 | 66.53806 | 32946 ft | 527 kts | 75° |
| 2026-05-08 03:08 | 42.96720 | 66.63455 | 32947 ft | 527 kts | 75° |
| 2026-05-08 03:09 | 42.98682 | 66.73097 | 32945 ft | 526 kts | 75° |
| 2026-05-08 03:09 | 43.00625 | 66.82740 | 32946 ft | 526 kts | 75° |
| 2026-05-08 03:10 | 43.02534 | 66.92401 | 32943 ft | 526 kts | 75° |
| 2026-05-08 03:10 | 43.04431 | 67.02059 | 32949 ft | 526 kts | 75° |
| 2026-05-08 03:11 | 43.06310 | 67.11653 | 32952 ft | 526 kts | 75° |
| 2026-05-08 03:11 | 43.08196 | 67.21317 | 32953 ft | 526 kts | 75° |
| 2026-05-08 03:12 | 43.09769 | 67.29416 | 32953 ft | 526 kts | 75° |
| 2026-05-08 03:12 | 43.11628 | 67.39033 | 32951 ft | 526 kts | 75° |
| 2026-05-08 03:13 | 43.13493 | 67.48722 | 32956 ft | 526 kts | 76° |
| 2026-05-08 03:13 | 43.15351 | 67.58417 | 32959 ft | 527 kts | 76° |
| 2026-05-08 03:14 | 43.17205 | 67.68136 | 32954 ft | 527 kts | 76° |
| 2026-05-08 03:14 | 43.19050 | 67.77854 | 32960 ft | 527 kts | 76° |
| 2026-05-08 03:15 | 43.20885 | 67.87578 | 32959 ft | 526 kts | 76° |
| 2026-05-08 03:15 | 43.22708 | 67.97295 | 32955 ft | 526 kts | 76° |
| 2026-05-08 03:16 | 43.24524 | 68.07027 | 32958 ft | 526 kts | 76° |
| 2026-05-08 03:16 | 43.26329 | 68.16740 | 32962 ft | 525 kts | 76° |
| 2026-05-08 03:17 | 43.28112 | 68.26392 | 32965 ft | 525 kts | 76° |
| 2026-05-08 03:17 | 43.29892 | 68.36113 | 32968 ft | 525 kts | 77° |
| 2026-05-08 03:18 | 43.31170 | 68.45969 | 32976 ft | 524 kts | 82° |
| 2026-05-08 03:18 | 43.32300 | 68.55855 | 32966 ft | 524 kts | 82° |
| 2026-05-08 03:19 | 43.33350 | 68.65764 | 32965 ft | 524 kts | 84° |
| 2026-05-08 03:19 | 43.34141 | 68.75715 | 32970 ft | 524 kts | 85° |
| 2026-05-08 03:20 | 43.34937 | 68.85677 | 32970 ft | 524 kts | 84° |
| 2026-05-08 03:20 | 43.35771 | 68.95622 | 32977 ft | 524 kts | 84° |
| 2026-05-08 03:21 | 43.36607 | 69.05575 | 32977 ft | 524 kts | 84° |
| 2026-05-08 03:21 | 43.37429 | 69.15519 | 32977 ft | 524 kts | 84° |
| 2026-05-08 03:22 | 43.38263 | 69.25403 | 32984 ft | 524 kts | 84° |
| 2026-05-08 03:22 | 43.39133 | 69.35348 | 32978 ft | 524 kts | 84° |
| 2026-05-08 03:23 | 43.39993 | 69.45298 | 32985 ft | 524 kts | 84° |
| 2026-05-08 03:23 | 43.40837 | 69.55257 | 32986 ft | 525 kts | 84° |
| 2026-05-08 03:24 | 43.41672 | 69.65231 | 32987 ft | 525 kts | 84° |
| 2026-05-08 03:24 | 43.42501 | 69.75223 | 32992 ft | 526 kts | 84° |
| 2026-05-08 03:25 | 43.43348 | 69.85230 | 32991 ft | 526 kts | 84° |
| 2026-05-08 03:25 | 43.44206 | 69.95231 | 32994 ft | 527 kts | 84° |
| 2026-05-08 03:26 | 43.45054 | 70.05246 | 32985 ft | 527 kts | 84° |
| 2026-05-08 03:26 | 43.45889 | 70.15263 | 32987 ft | 526 kts | 84° |
| 2026-05-08 03:27 | 43.46709 | 70.25218 | 32990 ft | 526 kts | 84° |
| 2026-05-08 03:27 | 43.47524 | 70.35214 | 32988 ft | 526 kts | 84° |
| 2026-05-08 03:28 | 43.48330 | 70.45219 | 32985 ft | 525 kts | 84° |
| 2026-05-08 03:28 | 43.49128 | 70.55220 | 32988 ft | 524 kts | 84° |
| 2026-05-08 03:29 | 43.49914 | 70.65199 | 32988 ft | 524 kts | 84° |
| 2026-05-08 03:29 | 43.50692 | 70.75173 | 32987 ft | 523 kts | 84° |
| 2026-05-08 03:30 | 43.51840 | 70.90116 | 32988 ft | 523 kts | 84° |
| 2026-05-08 03:31 | 43.53314 | 71.10040 | 32988 ft | 523 kts | 84° |
| 2026-05-08 03:32 | 43.54394 | 71.24939 | 32989 ft | 523 kts | 84° |
| 2026-05-08 03:32 | 43.55109 | 71.34927 | 32992 ft | 523 kts | 84° |
| 2026-05-08 03:33 | 43.55814 | 71.44917 | 32992 ft | 524 kts | 84° |
| 2026-05-08 03:33 | 43.56511 | 71.54907 | 32996 ft | 524 kts | 84° |
| 2026-05-08 03:34 | 43.57200 | 71.64918 | 32995 ft | 524 kts | 84° |
| 2026-05-08 03:34 | 43.57880 | 71.74919 | 32985 ft | 524 kts | 84° |
| 2026-05-08 03:35 | 43.58552 | 71.84938 | 32993 ft | 524 kts | 84° |
| 2026-05-08 03:35 | 43.59215 | 71.94953 | 32993 ft | 524 kts | 84° |
| 2026-05-08 03:36 | 43.59866 | 72.04921 | 32993 ft | 525 kts | 84° |
| 2026-05-08 03:36 | 43.60512 | 72.14959 | 32992 ft | 525 kts | 84° |
| 2026-05-08 03:37 | 43.61149 | 72.24984 | 32984 ft | 525 kts | 84° |
| 2026-05-08 03:37 | 43.61779 | 72.35038 | 32994 ft | 525 kts | 84° |
| 2026-05-08 03:38 | 43.62399 | 72.45083 | 32993 ft | 525 kts | 84° |
| 2026-05-08 03:38 | 43.63011 | 72.55127 | 32995 ft | 524 kts | 84° |
| 2026-05-08 03:39 | 43.63613 | 72.65170 | 32993 ft | 524 kts | 84° |
| 2026-05-08 03:39 | 43.64204 | 72.75181 | 32994 ft | 523 kts | 84° |
| 2026-05-08 03:40 | 43.64788 | 72.85205 | 32996 ft | 523 kts | 85° |
| 2026-05-08 03:40 | 43.65357 | 72.95138 | 32992 ft | 522 kts | 85° |
| 2026-05-08 03:41 | 43.65922 | 73.05140 | 32994 ft | 522 kts | 85° |
| 2026-05-08 03:41 | 43.66477 | 73.15132 | 32999 ft | 521 kts | 85° |
| 2026-05-08 03:42 | 43.67024 | 73.25122 | 32996 ft | 521 kts | 85° |
| 2026-05-08 03:42 | 43.67560 | 73.35105 | 33001 ft | 521 kts | 85° |
| 2026-05-08 03:43 | 43.68088 | 73.45081 | 33000 ft | 521 kts | 85° |
| 2026-05-08 03:43 | 43.68608 | 73.55072 | 33006 ft | 521 kts | 85° |
| 2026-05-08 03:44 | 43.69117 | 73.64992 | 33007 ft | 521 kts | 85° |
| 2026-05-08 03:44 | 43.69593 | 73.74977 | 33010 ft | 521 kts | 87° |
| 2026-05-08 03:45 | 43.69405 | 73.85015 | 33344 ft | 522 kts | 92° |
| 2026-05-08 03:45 | 43.69229 | 73.90012 | 33696 ft | 520 kts | 92° |
| 2026-05-08 03:45 | 43.69058 | 73.94989 | 34029 ft | 518 kts | 92° |
| 2026-05-08 03:45 | 43.68900 | 73.99958 | 34286 ft | 517 kts | 91° |
| 2026-05-08 03:46 | 43.68751 | 74.04914 | 34509 ft | 516 kts | 91° |
| 2026-05-08 03:46 | 43.68607 | 74.09872 | 34707 ft | 516 kts | 91° |
| 2026-05-08 03:46 | 43.68461 | 74.14828 | 34896 ft | 516 kts | 91° |
| 2026-05-08 03:47 | 43.68157 | 74.24786 | 34998 ft | 519 kts | 91° |
| 2026-05-08 03:47 | 43.67854 | 74.34639 | 35015 ft | 514 kts | 91° |
| 2026-05-08 03:48 | 43.67547 | 74.44485 | 35022 ft | 512 kts | 91° |
| 2026-05-08 03:48 | 43.67230 | 74.54349 | 35028 ft | 510 kts | 91° |
| 2026-05-08 03:49 | 43.66908 | 74.64082 | 35028 ft | 510 kts | 91° |
| 2026-05-08 03:49 | 43.66576 | 74.73877 | 35028 ft | 510 kts | 91° |
| 2026-05-08 03:50 | 43.66235 | 74.83676 | 35025 ft | 511 kts | 92° |
| 2026-05-08 03:50 | 43.65886 | 74.93482 | 35028 ft | 511 kts | 92° |
| 2026-05-08 03:51 | 43.65527 | 75.03298 | 35022 ft | 512 kts | 92° |
| 2026-05-08 03:51 | 43.65162 | 75.13065 | 35017 ft | 512 kts | 92° |
| 2026-05-08 03:52 | 43.64787 | 75.22890 | 35011 ft | 512 kts | 92° |
| 2026-05-08 03:52 | 43.64403 | 75.32710 | 35014 ft | 512 kts | 92° |
| 2026-05-08 03:53 | 43.64011 | 75.42525 | 35009 ft | 512 kts | 92° |
| 2026-05-08 03:53 | 43.63612 | 75.52360 | 35013 ft | 512 kts | 92° |
| 2026-05-08 03:54 | 43.63203 | 75.62113 | 35009 ft | 512 kts | 92° |
| 2026-05-08 03:54 | 43.62781 | 75.71932 | 35011 ft | 512 kts | 92° |
| 2026-05-08 03:55 | 43.62353 | 75.81738 | 35010 ft | 512 kts | 92° |
| 2026-05-08 03:55 | 43.61917 | 75.91543 | 35003 ft | 512 kts | 92° |
| 2026-05-08 03:56 | 43.61472 | 76.01349 | 35005 ft | 512 kts | 92° |
| 2026-05-08 03:56 | 43.61020 | 76.11151 | 35008 ft | 511 kts | 92° |
| 2026-05-08 03:57 | 43.60562 | 76.20881 | 35005 ft | 511 kts | 92° |
| 2026-05-08 03:57 | 43.60095 | 76.30666 | 35003 ft | 511 kts | 92° |
| 2026-05-08 03:58 | 43.59903 | 76.40440 | 35011 ft | 509 kts | 89° |
| 2026-05-08 03:58 | 43.59906 | 76.50210 | 35000 ft | 509 kts | 89° |
| 2026-05-08 03:59 | 43.59891 | 76.58330 | 35003 ft | 509 kts | 89° |
| 2026-05-08 03:59 | 43.59838 | 76.68082 | 35001 ft | 508 kts | 89° |
| 2026-05-08 04:00 | 43.59772 | 76.77829 | 35011 ft | 508 kts | 89° |
| 2026-05-08 04:00 | 43.59694 | 76.87579 | 35012 ft | 507 kts | 89° |
| 2026-05-08 04:01 | 43.59600 | 76.97297 | 35028 ft | 507 kts | 89° |
| 2026-05-08 04:01 | 43.59507 | 77.07036 | 35038 ft | 508 kts | 89° |
| 2026-05-08 04:02 | 43.59407 | 77.16736 | 35022 ft | 508 kts | 90° |
| 2026-05-08 04:02 | 43.59117 | 77.26473 | 35025 ft | 508 kts | 92° |
| 2026-05-08 04:03 | 43.58739 | 77.36199 | 35021 ft | 507 kts | 92° |
| 2026-05-08 04:03 | 43.58226 | 77.50755 | 35031 ft | 506 kts | 91° |
| 2026-05-08 04:04 | 43.58036 | 77.60435 | 35032 ft | 505 kts | 89° |
| 2026-05-08 04:04 | 43.57961 | 77.70142 | 35035 ft | 505 kts | 89° |
| 2026-05-08 04:05 | 43.57854 | 77.79822 | 35039 ft | 505 kts | 90° |
| 2026-05-08 04:05 | 43.57714 | 77.89438 | 35041 ft | 504 kts | 90° |
| 2026-05-08 04:06 | 43.57564 | 77.99106 | 35043 ft | 504 kts | 90° |
| 2026-05-08 04:06 | 43.57409 | 78.08780 | 35044 ft | 504 kts | 90° |
| 2026-05-08 04:07 | 43.57246 | 78.18429 | 35038 ft | 503 kts | 90° |
| 2026-05-08 04:07 | 43.57075 | 78.28071 | 35041 ft | 503 kts | 90° |
| 2026-05-08 04:08 | 43.56897 | 78.37716 | 35037 ft | 502 kts | 90° |
| 2026-05-08 04:08 | 43.56711 | 78.47345 | 35035 ft | 502 kts | 90° |
| 2026-05-08 04:09 | 43.56517 | 78.56960 | 35035 ft | 501 kts | 90° |
| 2026-05-08 04:09 | 43.56317 | 78.66561 | 35040 ft | 501 kts | 89° |
| 2026-05-08 04:10 | 43.56107 | 78.76103 | 35036 ft | 500 kts | 89° |
| 2026-05-08 04:10 | 43.55890 | 78.85692 | 35040 ft | 500 kts | 89° |
| 2026-05-08 04:11 | 43.55665 | 78.95278 | 35036 ft | 500 kts | 89° |
| 2026-05-08 04:11 | 43.55432 | 79.04855 | 35041 ft | 499 kts | 89° |
| 2026-05-08 04:12 | 43.55192 | 79.14413 | 35043 ft | 498 kts | 89° |
| 2026-05-08 04:12 | 43.54946 | 79.23953 | 35040 ft | 497 kts | 89° |
| 2026-05-08 04:13 | 43.54691 | 79.33417 | 35043 ft | 497 kts | 90° |
| 2026-05-08 04:13 | 43.54426 | 79.42946 | 35050 ft | 497 kts | 90° |
| 2026-05-08 04:14 | 43.54154 | 79.52475 | 35050 ft | 497 kts | 90° |
| 2026-05-08 04:14 | 43.53875 | 79.62010 | 35055 ft | 497 kts | 90° |
| 2026-05-08 04:15 | 43.53588 | 79.71539 | 35060 ft | 497 kts | 90° |
| 2026-05-08 04:15 | 43.53294 | 79.81075 | 35064 ft | 498 kts | 90° |
| 2026-05-08 04:16 | 43.52991 | 79.90554 | 35068 ft | 498 kts | 90° |
| 2026-05-08 04:16 | 43.52679 | 80.00089 | 35077 ft | 499 kts | 90° |
| 2026-05-08 04:17 | 43.52359 | 80.09637 | 35079 ft | 499 kts | 90° |
| 2026-05-08 04:17 | 43.52032 | 80.19187 | 35079 ft | 499 kts | 91° |
| 2026-05-08 04:18 | 43.51697 | 80.28746 | 35085 ft | 499 kts | 91° |
| 2026-05-08 04:18 | 43.51353 | 80.38301 | 35092 ft | 500 kts | 91° |
| 2026-05-08 04:19 | 43.51001 | 80.47875 | 35090 ft | 500 kts | 91° |
| 2026-05-08 04:19 | 43.50641 | 80.57456 | 35097 ft | 500 kts | 91° |
| 2026-05-08 04:20 | 43.50276 | 80.66977 | 35093 ft | 500 kts | 91° |
| 2026-05-08 04:20 | 43.49922 | 80.76549 | 35111 ft | 500 kts | 90° |
| 2026-05-08 04:21 | 43.49778 | 80.86119 | 35194 ft | 498 kts | 89° |
| 2026-05-08 04:21 | 43.49686 | 80.95677 | 35203 ft | 500 kts | 89° |
| 2026-05-08 04:22 | 43.49556 | 81.05204 | 35201 ft | 501 kts | 90° |
| 2026-05-08 04:22 | 43.49396 | 81.14797 | 35203 ft | 502 kts | 90° |
| 2026-05-08 04:23 | 43.49224 | 81.24429 | 35197 ft | 503 kts | 90° |
| 2026-05-08 04:23 | 43.49046 | 81.34057 | 35201 ft | 503 kts | 90° |
| 2026-05-08 04:24 | 43.48862 | 81.43682 | 35202 ft | 503 kts | 91° |
| 2026-05-08 04:24 | 43.48671 | 81.53333 | 35192 ft | 503 kts | 91° |
| 2026-05-08 04:25 | 43.48470 | 81.62963 | 35191 ft | 503 kts | 91° |
| 2026-05-08 04:25 | 43.48260 | 81.72605 | 35185 ft | 503 kts | 91° |
| 2026-05-08 04:26 | 43.48026 | 81.82257 | 35175 ft | 503 kts | 91° |
| 2026-05-08 04:26 | 43.47785 | 81.91825 | 35169 ft | 503 kts | 91° |
| 2026-05-08 04:27 | 43.47537 | 82.01451 | 35172 ft | 502 kts | 91° |
| 2026-05-08 04:27 | 43.47282 | 82.11065 | 35173 ft | 502 kts | 91° |
| 2026-05-08 04:28 | 43.47019 | 82.20674 | 35166 ft | 502 kts | 91° |
| 2026-05-08 04:28 | 43.46748 | 82.30286 | 35165 ft | 502 kts | 92° |
| 2026-05-08 04:29 | 43.46470 | 82.39888 | 35168 ft | 501 kts | 92° |
| 2026-05-08 04:29 | 43.46182 | 82.49532 | 35169 ft | 508 kts | 91° |
| 2026-05-08 04:30 | 43.45884 | 82.59240 | 35168 ft | 513 kts | 92° |
| 2026-05-08 04:30 | 43.45572 | 82.69093 | 35169 ft | 516 kts | 92° |
| 2026-05-08 04:31 | 43.45254 | 82.78944 | 35177 ft | 515 kts | 92° |
| 2026-05-08 04:31 | 43.44925 | 82.88796 | 35179 ft | 513 kts | 92° |
| 2026-05-08 04:32 | 43.44590 | 82.98580 | 35187 ft | 510 kts | 92° |
| 2026-05-08 04:32 | 43.44249 | 83.08323 | 35198 ft | 508 kts | 92° |
| 2026-05-08 04:33 | 43.43902 | 83.18023 | 35208 ft | 507 kts | 92° |
| 2026-05-08 04:33 | 43.43547 | 83.27702 | 35214 ft | 506 kts | 92° |
| 2026-05-08 04:34 | 43.43181 | 83.37383 | 35233 ft | 506 kts | 92° |
| 2026-05-08 04:34 | 43.42475 | 83.46974 | 35235 ft | 507 kts | 96° |
| 2026-05-08 04:35 | 43.41625 | 83.56620 | 35253 ft | 508 kts | 96° |
| 2026-05-08 04:35 | 43.40779 | 83.66282 | 35253 ft | 509 kts | 96° |
| 2026-05-08 04:36 | 43.39945 | 83.75964 | 35258 ft | 509 kts | 96° |
| 2026-05-08 04:36 | 43.39112 | 83.85632 | 35269 ft | 509 kts | 96° |
| 2026-05-08 04:37 | 43.38275 | 83.95243 | 35271 ft | 509 kts | 96° |
| 2026-05-08 04:37 | 43.37423 | 84.04900 | 35275 ft | 508 kts | 96° |
| 2026-05-08 04:38 | 43.36563 | 84.14561 | 35283 ft | 508 kts | 96° |
| 2026-05-08 04:38 | 43.35698 | 84.24191 | 35296 ft | 507 kts | 96° |
| 2026-05-08 04:39 | 43.34828 | 84.33802 | 35302 ft | 507 kts | 96° |
| 2026-05-08 04:39 | 43.33938 | 84.43408 | 35306 ft | 507 kts | 96° |
| 2026-05-08 04:40 | 43.33027 | 84.52968 | 35302 ft | 507 kts | 96° |
| 2026-05-08 04:40 | 43.32103 | 84.62581 | 35314 ft | 508 kts | 96° |
| 2026-05-08 04:41 | 43.31174 | 84.72190 | 35311 ft | 508 kts | 96° |
| 2026-05-08 04:41 | 43.30238 | 84.81807 | 35325 ft | 507 kts | 96° |
| 2026-05-08 04:42 | 43.29296 | 84.91399 | 35324 ft | 507 kts | 96° |
| 2026-05-08 04:42 | 43.28346 | 85.00980 | 35331 ft | 506 kts | 96° |
| 2026-05-08 04:43 | 43.27390 | 85.10554 | 35329 ft | 506 kts | 96° |
| 2026-05-08 04:43 | 43.26424 | 85.20113 | 35340 ft | 506 kts | 96° |
| 2026-05-08 04:44 | 43.25453 | 85.29672 | 35339 ft | 506 kts | 96° |
| 2026-05-08 04:44 | 43.24473 | 85.39230 | 35341 ft | 506 kts | 96° |
| 2026-05-08 04:45 | 43.23490 | 85.48730 | 35328 ft | 506 kts | 96° |
| 2026-05-08 04:45 | 43.22493 | 85.58285 | 35342 ft | 506 kts | 96° |
| 2026-05-08 04:46 | 43.21489 | 85.67835 | 35332 ft | 506 kts | 97° |
| 2026-05-08 04:46 | 43.20648 | 85.75775 | 35334 ft | 507 kts | 97° |
| 2026-05-08 04:47 | 43.19629 | 85.85339 | 35339 ft | 507 kts | 97° |
| 2026-05-08 04:47 | 43.19128 | 85.94901 | 35317 ft | 501 kts | 80° |
| 2026-05-08 04:48 | 43.19891 | 85.99531 | 35335 ft | 497 kts | 69° |
| 2026-05-08 04:48 | 43.21266 | 86.03852 | 35329 ft | 494 kts | 56° |
| 2026-05-08 04:48 | 43.25127 | 86.11567 | 35333 ft | 492 kts | 53° |
| 2026-05-08 04:49 | 43.28976 | 86.19370 | 35328 ft | 495 kts | 54° |
| 2026-05-08 04:49 | 43.32788 | 86.27272 | 35319 ft | 498 kts | 54° |
| 2026-05-08 04:50 | 43.36621 | 86.35145 | 35305 ft | 499 kts | 54° |
| 2026-05-08 04:50 | 43.40477 | 86.43091 | 35291 ft | 499 kts | 54° |
| 2026-05-08 04:51 | 43.44327 | 86.51024 | 35277 ft | 498 kts | 54° |
| 2026-05-08 04:51 | 43.48196 | 86.58957 | 35258 ft | 497 kts | 54° |
| 2026-05-08 04:52 | 43.52039 | 86.66869 | 35238 ft | 496 kts | 54° |
| 2026-05-08 04:52 | 43.55835 | 86.74730 | 35217 ft | 495 kts | 54° |
| 2026-05-08 04:53 | 43.59607 | 86.82693 | 35198 ft | 495 kts | 55° |
| 2026-05-08 04:53 | 43.63362 | 86.90657 | 35192 ft | 495 kts | 55° |
| 2026-05-08 04:54 | 43.67119 | 86.98628 | 35174 ft | 496 kts | 55° |
| 2026-05-08 04:54 | 43.70883 | 87.06631 | 35159 ft | 497 kts | 55° |
| 2026-05-08 04:55 | 43.74652 | 87.14667 | 35145 ft | 498 kts | 55° |
| 2026-05-08 04:55 | 43.78414 | 87.22722 | 35143 ft | 498 kts | 55° |
| 2026-05-08 04:56 | 43.82173 | 87.30797 | 35146 ft | 499 kts | 55° |
| 2026-05-08 04:56 | 43.85900 | 87.38826 | 35151 ft | 498 kts | 55° |
| 2026-05-08 04:57 | 43.89648 | 87.46919 | 35152 ft | 498 kts | 55° |
| 2026-05-08 04:57 | 43.93564 | 87.54828 | 35151 ft | 496 kts | 51° |
| 2026-05-08 04:58 | 43.97766 | 87.62424 | 35148 ft | 496 kts | 50° |
| 2026-05-08 04:58 | 44.01964 | 87.70019 | 35134 ft | 495 kts | 51° |
| 2026-05-08 04:59 | 44.06129 | 87.77652 | 35125 ft | 495 kts | 51° |
| 2026-05-08 04:59 | 44.10278 | 87.85298 | 35127 ft | 494 kts | 51° |
| 2026-05-08 05:00 | 44.14382 | 87.92905 | 35125 ft | 495 kts | 53° |
| 2026-05-08 05:00 | 44.17570 | 88.01425 | 35124 ft | 498 kts | 68° |
| 2026-05-08 05:01 | 44.19341 | 88.10765 | 35134 ft | 500 kts | 77° |
| 2026-05-08 05:01 | 44.20683 | 88.20293 | 35139 ft | 500 kts | 77° |
| 2026-05-08 05:02 | 44.22034 | 88.29810 | 35125 ft | 500 kts | 77° |
| 2026-05-08 05:02 | 44.23413 | 88.39260 | 35127 ft | 500 kts | 76° |
| 2026-05-08 05:03 | 44.24810 | 88.48762 | 35121 ft | 500 kts | 76° |
| 2026-05-08 05:03 | 44.26203 | 88.58293 | 35107 ft | 501 kts | 76° |
| 2026-05-08 05:04 | 44.27583 | 88.67821 | 35100 ft | 501 kts | 76° |
| 2026-05-08 05:04 | 44.28956 | 88.77364 | 35102 ft | 501 kts | 76° |
| 2026-05-08 05:05 | 44.30322 | 88.86919 | 35096 ft | 502 kts | 76° |
| 2026-05-08 05:05 | 44.31683 | 88.96494 | 35084 ft | 502 kts | 76° |
| 2026-05-08 05:06 | 44.33034 | 89.06067 | 35081 ft | 503 kts | 76° |
| 2026-05-08 05:06 | 44.34380 | 89.15657 | 35080 ft | 503 kts | 76° |
| 2026-05-08 05:07 | 44.35716 | 89.25244 | 35082 ft | 503 kts | 76° |
| 2026-05-08 05:07 | 44.37038 | 89.34788 | 35073 ft | 503 kts | 76° |
| 2026-05-08 05:08 | 44.38360 | 89.44393 | 35070 ft | 503 kts | 76° |
| 2026-05-08 05:08 | 44.39676 | 89.54017 | 35071 ft | 503 kts | 76° |
| 2026-05-08 05:09 | 44.40919 | 89.63677 | 35065 ft | 505 kts | 82° |
| 2026-05-08 05:09 | 44.40726 | 89.73518 | 35074 ft | 510 kts | 97° |
| 2026-05-08 05:10 | 44.37839 | 89.87884 | 35064 ft | 513 kts | 106° |
| 2026-05-08 05:11 | 44.35694 | 89.97323 | 35061 ft | 513 kts | 105° |
| 2026-05-08 05:11 | 44.33579 | 90.06861 | 35060 ft | 514 kts | 105° |
| 2026-05-08 05:12 | 44.31486 | 90.16410 | 35060 ft | 514 kts | 105° |
| 2026-05-08 05:12 | 44.29388 | 90.25955 | 35059 ft | 514 kts | 105° |
| 2026-05-08 05:13 | 44.27280 | 90.35482 | 35063 ft | 514 kts | 105° |
| 2026-05-08 05:13 | 44.25162 | 90.45005 | 35065 ft | 514 kts | 105° |
| 2026-05-08 05:14 | 44.23036 | 90.54522 | 35070 ft | 513 kts | 105° |
| 2026-05-08 05:14 | 44.20904 | 90.64022 | 35068 ft | 513 kts | 105° |
| 2026-05-08 05:15 | 44.18764 | 90.73517 | 35073 ft | 513 kts | 105° |
| 2026-05-08 05:15 | 44.16615 | 90.83014 | 35075 ft | 513 kts | 106° |
| 2026-05-08 05:16 | 44.14462 | 90.92488 | 35083 ft | 513 kts | 106° |
| 2026-05-08 05:16 | 44.12299 | 91.01967 | 35087 ft | 514 kts | 106° |
| 2026-05-08 05:17 | 44.10141 | 91.11374 | 35089 ft | 514 kts | 106° |
| 2026-05-08 05:17 | 44.07958 | 91.20851 | 35089 ft | 515 kts | 106° |
| 2026-05-08 05:18 | 44.05765 | 91.30338 | 35093 ft | 515 kts | 106° |
| 2026-05-08 05:18 | 44.03564 | 91.39828 | 35103 ft | 516 kts | 106° |
| 2026-05-08 05:19 | 44.01341 | 91.49319 | 35107 ft | 517 kts | 107° |
| 2026-05-08 05:19 | 43.99088 | 91.58819 | 35109 ft | 518 kts | 107° |
| 2026-05-08 05:20 | 43.96825 | 91.68323 | 35126 ft | 518 kts | 107° |
| 2026-05-08 05:20 | 43.94560 | 91.77819 | 35126 ft | 518 kts | 107° |
| 2026-05-08 05:21 | 43.92287 | 91.87311 | 35135 ft | 518 kts | 107° |
| 2026-05-08 05:21 | 43.90003 | 91.96805 | 35129 ft | 518 kts | 107° |
| 2026-05-08 05:22 | 43.87727 | 92.06227 | 35142 ft | 519 kts | 107° |
| 2026-05-08 05:22 | 43.85426 | 92.15712 | 35144 ft | 519 kts | 107° |
| 2026-05-08 05:23 | 43.83115 | 92.25200 | 35150 ft | 519 kts | 107° |
| 2026-05-08 05:23 | 43.80797 | 92.34678 | 35139 ft | 520 kts | 107° |
| 2026-05-08 05:24 | 43.78480 | 92.44108 | 35136 ft | 520 kts | 107° |
| 2026-05-08 05:24 | 43.76145 | 92.53579 | 35132 ft | 520 kts | 107° |
| 2026-05-08 05:25 | 43.73802 | 92.63039 | 35129 ft | 520 kts | 107° |
| 2026-05-08 05:25 | 43.71448 | 92.72508 | 35120 ft | 520 kts | 107° |
| 2026-05-08 05:26 | 43.69087 | 92.81964 | 35135 ft | 520 kts | 108° |
| 2026-05-08 05:26 | 43.66719 | 92.91415 | 35145 ft | 521 kts | 108° |
| 2026-05-08 05:27 | 43.64346 | 93.00874 | 35150 ft | 521 kts | 107° |
| 2026-05-08 05:27 | 43.62077 | 93.10293 | 35151 ft | 521 kts | 107° |
| 2026-05-08 05:28 | 43.59826 | 93.19795 | 35168 ft | 521 kts | 107° |
| 2026-05-08 05:28 | 43.57558 | 93.29284 | 35169 ft | 521 kts | 107° |
| 2026-05-08 05:29 | 43.55258 | 93.38809 | 35164 ft | 522 kts | 107° |
| 2026-05-08 05:29 | 43.52960 | 93.48273 | 35176 ft | 521 kts | 107° |
| 2026-05-08 05:30 | 43.50650 | 93.57747 | 35175 ft | 521 kts | 107° |
| 2026-05-08 05:30 | 43.48333 | 93.67214 | 35172 ft | 521 kts | 107° |
| 2026-05-08 05:31 | 43.46010 | 93.76669 | 35175 ft | 521 kts | 107° |
| 2026-05-08 05:31 | 43.43680 | 93.86115 | 35173 ft | 521 kts | 107° |
| 2026-05-08 05:32 | 43.41356 | 93.95497 | 35178 ft | 522 kts | 107° |
| 2026-05-08 05:32 | 43.39003 | 94.04958 | 35172 ft | 522 kts | 107° |
| 2026-05-08 05:33 | 43.36639 | 94.14421 | 35175 ft | 522 kts | 107° |
| 2026-05-08 05:33 | 43.34273 | 94.23855 | 35176 ft | 522 kts | 107° |
| 2026-05-08 05:34 | 43.31917 | 94.33212 | 35169 ft | 521 kts | 107° |
| 2026-05-08 05:34 | 43.29537 | 94.42630 | 35164 ft | 521 kts | 107° |
| 2026-05-08 05:35 | 43.27152 | 94.52023 | 35158 ft | 521 kts | 107° |
| 2026-05-08 05:35 | 43.24756 | 94.61428 | 35143 ft | 521 kts | 107° |
| 2026-05-08 05:36 | 43.22762 | 94.69224 | 35144 ft | 522 kts | 107° |
| 2026-05-08 05:36 | 43.19953 | 94.80167 | 35118 ft | 523 kts | 108° |
| 2026-05-08 05:37 | 43.17924 | 94.88038 | 35107 ft | 523 kts | 108° |
| 2026-05-08 05:37 | 43.15512 | 94.97369 | 35095 ft | 523 kts | 108° |
| 2026-05-08 05:38 | 43.12523 | 95.06405 | 35085 ft | 524 kts | 124° |
| 2026-05-08 05:38 | 43.07550 | 95.13638 | 35070 ft | 523 kts | 145° |
| 2026-05-08 05:39 | 43.01517 | 95.19163 | 35071 ft | 523 kts | 148° |
| 2026-05-08 05:39 | 42.95429 | 95.24642 | 35069 ft | 524 kts | 147° |
| 2026-05-08 05:40 | 42.89362 | 95.30219 | 35058 ft | 526 kts | 146° |
| 2026-05-08 05:40 | 42.83307 | 95.35837 | 35057 ft | 526 kts | 146° |
| 2026-05-08 05:41 | 42.77296 | 95.41403 | 35053 ft | 526 kts | 146° |
| 2026-05-08 05:41 | 42.71248 | 95.46982 | 35047 ft | 524 kts | 146° |
| 2026-05-08 05:42 | 42.65216 | 95.52527 | 35044 ft | 523 kts | 146° |
| 2026-05-08 05:42 | 42.59185 | 95.58060 | 35046 ft | 522 kts | 146° |
| 2026-05-08 05:43 | 42.53173 | 95.63564 | 35049 ft | 520 kts | 146° |
| 2026-05-08 05:43 | 42.47179 | 95.69040 | 35056 ft | 519 kts | 147° |
| 2026-05-08 05:44 | 42.41593 | 95.75001 | 35057 ft | 514 kts | 128° |
| 2026-05-08 05:44 | 42.39724 | 95.79099 | 35084 ft | 512 kts | 112° |
| 2026-05-08 05:44 | 42.38606 | 95.83640 | 35057 ft | 509 kts | 98° |
| 2026-05-08 05:45 | 42.38217 | 95.93116 | 35069 ft | 505 kts | 88° |
| 2026-05-08 05:45 | 42.38079 | 96.02677 | 35074 ft | 509 kts | 89° |
| 2026-05-08 05:46 | 42.37865 | 96.12288 | 35080 ft | 512 kts | 89° |
| 2026-05-08 05:46 | 42.37590 | 96.21948 | 35079 ft | 514 kts | 90° |
| 2026-05-08 05:47 | 42.37293 | 96.31630 | 35075 ft | 515 kts | 90° |
| 2026-05-08 05:47 | 42.36993 | 96.41246 | 35073 ft | 514 kts | 90° |
| 2026-05-08 05:48 | 42.36687 | 96.50912 | 35068 ft | 514 kts | 90° |
| 2026-05-08 05:48 | 42.36375 | 96.60554 | 35068 ft | 513 kts | 90° |
| 2026-05-08 05:49 | 42.36056 | 96.70184 | 35061 ft | 512 kts | 90° |
| 2026-05-08 05:49 | 42.35727 | 96.79816 | 35060 ft | 512 kts | 90° |
| 2026-05-08 05:50 | 42.35391 | 96.89434 | 35057 ft | 512 kts | 90° |
| 2026-05-08 05:50 | 42.35049 | 96.99002 | 35051 ft | 513 kts | 90° |
| 2026-05-08 05:51 | 42.34696 | 97.08653 | 35045 ft | 514 kts | 90° |
| 2026-05-08 05:51 | 42.34335 | 97.18311 | 35037 ft | 515 kts | 90° |
| 2026-05-08 05:52 | 42.33964 | 97.27989 | 35044 ft | 516 kts | 90° |
| 2026-05-08 05:52 | 42.33584 | 97.37697 | 35035 ft | 517 kts | 90° |
| 2026-05-08 05:53 | 42.33196 | 97.47400 | 35023 ft | 517 kts | 91° |
| 2026-05-08 05:53 | 42.32799 | 97.57114 | 35029 ft | 517 kts | 91° |
| 2026-05-08 05:54 | 42.32397 | 97.66763 | 35021 ft | 518 kts | 91° |
| 2026-05-08 05:54 | 42.31984 | 97.76475 | 35019 ft | 518 kts | 91° |
| 2026-05-08 05:55 | 42.31561 | 97.86213 | 35015 ft | 518 kts | 91° |
| 2026-05-08 05:55 | 42.31132 | 97.95933 | 35013 ft | 518 kts | 91° |
| 2026-05-08 05:56 | 42.30693 | 98.05661 | 35009 ft | 519 kts | 91° |
| 2026-05-08 05:56 | 42.30246 | 98.15392 | 35006 ft | 519 kts | 91° |
| 2026-05-08 05:57 | 42.29792 | 98.25129 | 35001 ft | 519 kts | 91° |
| 2026-05-08 05:57 | 42.29329 | 98.34792 | 35000 ft | 519 kts | 92° |
| 2026-05-08 05:58 | 42.28833 | 98.44518 | 34992 ft | 519 kts | 92° |
| 2026-05-08 05:58 | 42.28322 | 98.54252 | 34992 ft | 519 kts | 92° |
| 2026-05-08 05:59 | 42.27807 | 98.63972 | 34991 ft | 520 kts | 92° |
| 2026-05-08 05:59 | 42.27286 | 98.73712 | 34983 ft | 520 kts | 92° |
| 2026-05-08 06:00 | 42.26756 | 98.83455 | 34987 ft | 520 kts | 92° |
| 2026-05-08 06:00 | 42.26219 | 98.93188 | 34973 ft | 521 kts | 92° |
| 2026-05-08 06:01 | 42.25675 | 99.02874 | 34974 ft | 521 kts | 92° |
| 2026-05-08 06:01 | 42.25120 | 99.12627 | 34973 ft | 521 kts | 92° |
| 2026-05-08 06:02 | 42.24554 | 99.22399 | 34970 ft | 521 kts | 92° |
| 2026-05-08 06:02 | 42.23981 | 99.32161 | 34962 ft | 522 kts | 92° |
| 2026-05-08 06:03 | 42.23401 | 99.41915 | 34954 ft | 522 kts | 92° |
| 2026-05-08 06:03 | 42.22811 | 99.51686 | 34950 ft | 522 kts | 92° |
| 2026-05-08 06:04 | 42.22216 | 99.61383 | 34952 ft | 521 kts | 92° |
| 2026-05-08 06:04 | 42.21611 | 99.71128 | 34946 ft | 521 kts | 93° |
| 2026-05-08 06:05 | 42.20998 | 99.80875 | 34946 ft | 521 kts | 93° |
| 2026-05-08 06:05 | 42.20376 | 99.90613 | 34943 ft | 521 kts | 93° |
| 2026-05-08 06:06 | 42.19746 | 100.00351 | 34940 ft | 521 kts | 93° |
| 2026-05-08 06:06 | 42.19108 | 100.10090 | 34939 ft | 521 kts | 93° |
| 2026-05-08 06:07 | 42.18460 | 100.19846 | 34934 ft | 522 kts | 93° |
| 2026-05-08 06:07 | 42.17809 | 100.29523 | 34931 ft | 522 kts | 93° |
| 2026-05-08 06:08 | 42.17145 | 100.39278 | 34926 ft | 522 kts | 93° |
| 2026-05-08 06:08 | 42.16471 | 100.49046 | 34924 ft | 523 kts | 93° |
| 2026-05-08 06:09 | 42.15788 | 100.58822 | 34923 ft | 523 kts | 93° |
| 2026-05-08 06:09 | 42.15098 | 100.68588 | 34920 ft | 524 kts | 94° |
| 2026-05-08 06:10 | 42.14403 | 100.78302 | 34917 ft | 524 kts | 94° |
| 2026-05-08 06:10 | 42.13695 | 100.88083 | 34918 ft | 525 kts | 94° |
| 2026-05-08 06:11 | 42.12979 | 100.97867 | 34912 ft | 525 kts | 94° |
| 2026-05-08 06:11 | 42.11698 | 101.07564 | 34918 ft | 527 kts | 104° |
| 2026-05-08 06:12 | 42.09312 | 101.16929 | 34922 ft | 528 kts | 109° |
| 2026-05-08 06:12 | 42.06789 | 101.26244 | 34925 ft | 529 kts | 109° |
| 2026-05-08 06:13 | 42.04297 | 101.35578 | 34912 ft | 530 kts | 109° |
| 2026-05-08 06:13 | 42.01842 | 101.44865 | 34909 ft | 530 kts | 109° |
| 2026-05-08 06:14 | 41.99366 | 101.54224 | 34914 ft | 531 kts | 109° |
| 2026-05-08 06:14 | 41.96881 | 101.63572 | 34920 ft | 531 kts | 109° |
| 2026-05-08 06:15 | 41.94382 | 101.72926 | 34919 ft | 532 kts | 110° |
| 2026-05-08 06:15 | 41.91869 | 101.82291 | 34919 ft | 532 kts | 110° |
| 2026-05-08 06:16 | 41.89351 | 101.91645 | 34919 ft | 533 kts | 110° |
| 2026-05-08 06:16 | 41.86824 | 102.00997 | 34921 ft | 533 kts | 110° |
| 2026-05-08 06:17 | 41.83013 | 102.15030 | 34925 ft | 534 kts | 110° |
| 2026-05-08 06:17 | 41.80460 | 102.24387 | 34924 ft | 534 kts | 110° |
| 2026-05-08 06:18 | 41.77901 | 102.33733 | 34930 ft | 535 kts | 110° |
| 2026-05-08 06:18 | 41.75329 | 102.43089 | 34926 ft | 535 kts | 111° |
| 2026-05-08 06:19 | 41.72767 | 102.52379 | 34929 ft | 535 kts | 111° |
| 2026-05-08 06:19 | 41.70175 | 102.61740 | 34925 ft | 536 kts | 111° |
| 2026-05-08 06:20 | 41.67575 | 102.71098 | 34931 ft | 536 kts | 111° |
| 2026-05-08 06:20 | 41.64968 | 102.80440 | 34931 ft | 536 kts | 111° |
| 2026-05-08 06:21 | 41.62354 | 102.89780 | 34923 ft | 536 kts | 111° |
| 2026-05-08 06:21 | 41.59731 | 102.99122 | 34916 ft | 537 kts | 111° |
| 2026-05-08 06:22 | 41.57097 | 103.08450 | 34922 ft | 537 kts | 111° |
| 2026-05-08 06:22 | 41.54472 | 103.17708 | 34921 ft | 537 kts | 111° |
| 2026-05-08 06:23 | 41.51819 | 103.27037 | 34919 ft | 537 kts | 111° |
| 2026-05-08 06:23 | 41.49160 | 103.36355 | 34913 ft | 537 kts | 111° |
| 2026-05-08 06:24 | 41.46944 | 103.44097 | 34914 ft | 537 kts | 111° |
| 2026-05-08 06:24 | 41.44270 | 103.53405 | 34914 ft | 538 kts | 111° |
| 2026-05-08 06:25 | 41.41147 | 103.64236 | 34919 ft | 538 kts | 112° |
| 2026-05-08 06:25 | 41.38891 | 103.72031 | 34908 ft | 538 kts | 112° |
| 2026-05-08 06:26 | 41.36192 | 103.81328 | 34915 ft | 538 kts | 112° |
| 2026-05-08 06:26 | 41.33482 | 103.90629 | 34909 ft | 538 kts | 112° |
| 2026-05-08 06:27 | 41.30764 | 103.99922 | 34912 ft | 539 kts | 112° |
| 2026-05-08 06:27 | 41.28059 | 104.09137 | 34908 ft | 539 kts | 112° |
| 2026-05-08 06:28 | 41.25320 | 104.18436 | 34909 ft | 539 kts | 112° |
| 2026-05-08 06:28 | 41.22580 | 104.27707 | 34913 ft | 539 kts | 112° |
| 2026-05-08 06:29 | 41.19829 | 104.36979 | 34916 ft | 539 kts | 112° |
| 2026-05-08 06:29 | 41.17071 | 104.46246 | 34921 ft | 539 kts | 112° |
| 2026-05-08 06:30 | 41.14308 | 104.55496 | 34927 ft | 539 kts | 112° |
| 2026-05-08 06:30 | 41.11555 | 104.64687 | 34928 ft | 539 kts | 112° |
| 2026-05-08 06:31 | 41.08746 | 104.73905 | 34942 ft | 539 kts | 114° |
| 2026-05-08 06:31 | 41.05698 | 104.82966 | 34937 ft | 538 kts | 116° |
| 2026-05-08 06:32 | 41.02579 | 104.91973 | 34940 ft | 538 kts | 115° |
| 2026-05-08 06:32 | 40.99486 | 105.00990 | 34945 ft | 537 kts | 115° |
| 2026-05-08 06:33 | 40.96417 | 105.10012 | 34948 ft | 537 kts | 115° |
| 2026-05-08 06:33 | 40.93347 | 105.19026 | 34956 ft | 537 kts | 115° |
| 2026-05-08 06:34 | 40.90283 | 105.27986 | 34958 ft | 537 kts | 115° |
| 2026-05-08 06:34 | 40.87193 | 105.36986 | 34960 ft | 537 kts | 115° |
| 2026-05-08 06:35 | 40.84098 | 105.45970 | 34965 ft | 537 kts | 115° |
| 2026-05-08 06:35 | 40.80993 | 105.54954 | 34968 ft | 537 kts | 115° |
| 2026-05-08 06:36 | 40.77884 | 105.63922 | 34974 ft | 538 kts | 116° |
| 2026-05-08 06:36 | 40.74762 | 105.72903 | 34981 ft | 538 kts | 116° |
| 2026-05-08 06:37 | 40.71633 | 105.81872 | 34984 ft | 538 kts | 116° |
| 2026-05-08 06:37 | 40.68498 | 105.90828 | 34986 ft | 539 kts | 116° |
| 2026-05-08 06:38 | 40.65368 | 105.99746 | 34987 ft | 540 kts | 116° |
| 2026-05-08 06:38 | 40.62209 | 106.08715 | 34991 ft | 540 kts | 116° |
| 2026-05-08 06:39 | 40.59037 | 106.17694 | 34984 ft | 541 kts | 116° |
| 2026-05-08 06:39 | 40.55854 | 106.26676 | 34997 ft | 542 kts | 116° |
| 2026-05-08 06:40 | 40.52659 | 106.35665 | 34976 ft | 543 kts | 116° |
| 2026-05-08 06:40 | 40.49454 | 106.44651 | 34977 ft | 543 kts | 116° |
| 2026-05-08 06:41 | 40.46241 | 106.53636 | 34988 ft | 544 kts | 117° |
| 2026-05-08 06:41 | 40.43016 | 106.62622 | 34982 ft | 544 kts | 117° |
| 2026-05-08 06:42 | 40.39803 | 106.71551 | 34989 ft | 545 kts | 117° |
| 2026-05-08 06:42 | 40.36559 | 106.80539 | 34980 ft | 546 kts | 117° |
| 2026-05-08 06:43 | 40.33331 | 106.89563 | 34975 ft | 546 kts | 113° |
| 2026-05-08 06:43 | 40.32196 | 106.94321 | 35001 ft | 548 kts | 102° |
| 2026-05-08 06:43 | 40.31661 | 106.99256 | 35006 ft | 548 kts | 92° |
| 2026-05-08 06:44 | 40.32207 | 107.09152 | 35011 ft | 544 kts | 77° |
| 2026-05-08 06:44 | 40.33557 | 107.18919 | 35000 ft | 546 kts | 77° |
| 2026-05-08 06:45 | 40.34860 | 107.28739 | 34984 ft | 547 kts | 78° |
| 2026-05-08 06:45 | 40.36078 | 107.38590 | 34993 ft | 547 kts | 78° |
| 2026-05-08 06:46 | 40.37256 | 107.48366 | 34993 ft | 545 kts | 78° |
| 2026-05-08 06:46 | 40.38436 | 107.58179 | 34980 ft | 543 kts | 78° |
| 2026-05-08 06:47 | 40.39609 | 107.67962 | 34982 ft | 541 kts | 78° |
| 2026-05-08 06:47 | 40.40768 | 107.77686 | 34981 ft | 539 kts | 78° |
| 2026-05-08 06:48 | 40.41916 | 107.87396 | 34970 ft | 538 kts | 78° |
| 2026-05-08 06:48 | 40.43055 | 107.97092 | 34974 ft | 536 kts | 79° |
| 2026-05-08 06:49 | 40.44177 | 108.06761 | 34978 ft | 536 kts | 79° |
| 2026-05-08 06:49 | 40.45289 | 108.16436 | 34973 ft | 535 kts | 79° |
| 2026-05-08 06:50 | 40.46384 | 108.26030 | 34969 ft | 534 kts | 79° |
| 2026-05-08 06:50 | 40.47479 | 108.35684 | 34971 ft | 534 kts | 79° |
| 2026-05-08 06:51 | 40.48567 | 108.45353 | 34969 ft | 534 kts | 79° |
| 2026-05-08 06:51 | 40.49645 | 108.55015 | 34970 ft | 534 kts | 79° |
| 2026-05-08 06:52 | 40.50714 | 108.64664 | 34966 ft | 533 kts | 79° |
| 2026-05-08 06:52 | 40.51773 | 108.74303 | 34969 ft | 532 kts | 79° |
| 2026-05-08 06:53 | 40.52816 | 108.83867 | 34963 ft | 531 kts | 79° |
| 2026-05-08 06:53 | 40.53856 | 108.93480 | 34962 ft | 531 kts | 79° |
| 2026-05-08 06:54 | 40.54887 | 109.03089 | 34964 ft | 530 kts | 79° |
| 2026-05-08 06:54 | 40.55910 | 109.12693 | 34970 ft | 529 kts | 80° |
| 2026-05-08 06:55 | 40.56921 | 109.22270 | 34973 ft | 529 kts | 80° |
| 2026-05-08 06:55 | 40.57926 | 109.31869 | 34980 ft | 529 kts | 80° |
| 2026-05-08 06:56 | 40.58915 | 109.41390 | 34982 ft | 529 kts | 80° |
| 2026-05-08 06:56 | 40.59903 | 109.50980 | 34986 ft | 529 kts | 80° |
| 2026-05-08 06:57 | 40.60883 | 109.60567 | 34987 ft | 528 kts | 80° |
| 2026-05-08 06:57 | 40.61854 | 109.70149 | 35003 ft | 528 kts | 80° |
| 2026-05-08 06:58 | 40.62817 | 109.79746 | 35001 ft | 528 kts | 80° |
| 2026-05-08 06:58 | 40.63774 | 109.89347 | 35003 ft | 528 kts | 80° |
| 2026-05-08 06:59 | 40.64652 | 109.98887 | 35017 ft | 529 kts | 84° |
| 2026-05-08 06:59 | 40.64720 | 110.08603 | 35021 ft | 531 kts | 89° |
| 2026-05-08 07:00 | 40.64589 | 110.18337 | 35020 ft | 531 kts | 89° |
| 2026-05-08 07:00 | 40.64507 | 110.28075 | 35021 ft | 531 kts | 89° |